PORTS® Data Listing: 9414769 Oakland Middle Harbor Met, CA

CO-OPS RAW PORTS DATA

************************      PRELIMINARY DATA      ************************** 

     THIS RAW DATA HAS NOT BEEN SUBJECT TO THE NATIONAL OCEAN SERVICE'S        
     QUALITY CONTROL OR QUALITY ASSURANCE PROCEDURES AND DOES NOT MEET         
     THE CRITERIA AND STANDARDS OF OFFICIAL NATIONAL OCEAN SERVICE             
     DATA.  IT IS RELEASED FOR LIMITED PUBLIC USE AS PRELIMINARY DATA TO       
     BE USED ONLY WITH APPROPRIATE CAUTION.                                    

************************      PRELIMINARY DATA      ************************** 


       CD   -   Calendar date
       T    -   Time
       TZ   -   Timezone
       PW   -   Predicted water level (feet above MLLW)
       OW   -   Observed water level (feet above MLLW)
       WS   -   Wind speed (knots)
       WD   -   Wind direction (degrees true)
       WG   -   Wind gust (knots)
       AT   -   Air temperature (degrees farenheit)
       WT   -   Water temperature (degrees farenheit)
       AP   -   Air pressure (millibars)
       SA   -   Salinty (PSU - Practical Salinity Units)
       SG   -   Specific gravity
       RH   -   Relative humidity
       AG   -   Air gap (feet)
       VI   -   Visibility (nautical miles)

       ** NOTE **
       A variable that has its data fields filled with "9"s, indicates that
       data was not collected for that sample period.
       **********


STATION NAME: Oakland Middle Harbor Met (9414769)
****************************************************************************************************
    CD       T    TZ    PW     OW    WS   WD   WG    AT    WT    AP    SA    SG     RH    AG   VI
****************************************************************************************************
2020/02/13 10:30 PST  -99.99 -99.99    3  207    4 -99.9 -99.9 -999.9 -9.9 -9.999 -99.9 -99.99 -9.99
2020/02/13 10:36 PST  -99.99 -99.99    0  195    3 -99.9 -99.9 -999.9 -9.9 -9.999 -99.9 -99.99 -9.99
2020/02/13 10:42 PST  -99.99 -99.99    1  193    3 -99.9 -99.9 -999.9 -9.9 -9.999 -99.9 -99.99 -9.99
2020/02/13 10:48 PST  -99.99 -99.99    1   70    1 -99.9 -99.9 -999.9 -9.9 -9.999 -99.9 -99.99 -9.99
2020/02/13 10:54 PST  -99.99 -99.99    1   30    1 -99.9 -99.9 -999.9 -9.9 -9.999 -99.9 -99.99 -9.99
2020/02/13 11:00 PST  -99.99 -99.99    1  282    1 -99.9 -99.9 -999.9 -9.9 -9.999 -99.9 -99.99 -9.99
2020/02/13 11:06 PST  -99.99 -99.99    1  170    2 -99.9 -99.9 -999.9 -9.9 -9.999 -99.9 -99.99 -9.99
2020/02/13 11:12 PST  -99.99 -99.99    1  236    3 -99.9 -99.9 -999.9 -9.9 -9.999 -99.9 -99.99 -9.99
2020/02/13 11:18 PST  -99.99 -99.99    2  315    2 -99.9 -99.9 -999.9 -9.9 -9.999 -99.9 -99.99 -9.99
2020/02/13 11:24 PST  -99.99 -99.99    0    6    2 -99.9 -99.9 -999.9 -9.9 -9.999 -99.9 -99.99 -9.99
2020/02/13 11:30 PST  -99.99 -99.99    2  220    2 -99.9 -99.9 -999.9 -9.9 -9.999 -99.9 -99.99 -9.99
2020/02/13 11:36 PST  -99.99 -99.99    1  191    2 -99.9 -99.9 -999.9 -9.9 -9.999 -99.9 -99.99 -9.99
2020/02/13 11:42 PST  -99.99 -99.99    1  145    3 -99.9 -99.9 -999.9 -9.9 -9.999 -99.9 -99.99 -9.99
2020/02/13 11:48 PST  -99.99 -99.99    5  252    8 -99.9 -99.9 -999.9 -9.9 -9.999 -99.9 -99.99 -9.99
2020/02/13 11:54 PST  -99.99 -99.99    7  243    8 -99.9 -99.9 -999.9 -9.9 -9.999 -99.9 -99.99 -9.99
2020/02/13 12:00 PST  -99.99 -99.99    8  237    9 -99.9 -99.9 -999.9 -9.9 -9.999 -99.9 -99.99 -9.99
2020/02/13 12:06 PST  -99.99 -99.99    6  257    8 -99.9 -99.9 -999.9 -9.9 -9.999 -99.9 -99.99 -9.99
2020/02/13 12:12 PST  -99.99 -99.99    7  250   10 -99.9 -99.9 -999.9 -9.9 -9.999 -99.9 -99.99 -9.99
2020/02/13 12:18 PST  -99.99 -99.99    8  244   11 -99.9 -99.9 -999.9 -9.9 -9.999 -99.9 -99.99 -9.99
2020/02/13 12:24 PST  -99.99 -99.99   11  241   13 -99.9 -99.9 -999.9 -9.9 -9.999 -99.9 -99.99 -9.99
2020/02/13 12:30 PST  -99.99 -99.99   11  241   13 -99.9 -99.9 -999.9 -9.9 -9.999 -99.9 -99.99 -9.99
2020/02/13 12:36 PST  -99.99 -99.99   11  242   12 -99.9 -99.9 -999.9 -9.9 -9.999 -99.9 -99.99 -9.99
2020/02/13 12:42 PST  -99.99 -99.99   12  243   15 -99.9 -99.9 -999.9 -9.9 -9.999 -99.9 -99.99 -9.99
2020/02/13 12:48 PST  -99.99 -99.99   12  239   14 -99.9 -99.9 -999.9 -9.9 -9.999 -99.9 -99.99 -9.99
2020/02/13 12:54 PST  -99.99 -99.99   12  242   13 -99.9 -99.9 -999.9 -9.9 -9.999 -99.9 -99.99 -9.99
2020/02/13 13:00 PST  -99.99 -99.99   12  248   13 -99.9 -99.9 -999.9 -9.9 -9.999 -99.9 -99.99 -9.99
2020/02/13 13:06 PST  -99.99 -99.99   13  248   14 -99.9 -99.9 -999.9 -9.9 -9.999 -99.9 -99.99 -9.99
2020/02/13 13:12 PST  -99.99 -99.99   10  239   14 -99.9 -99.9 -999.9 -9.9 -9.999 -99.9 -99.99 -9.99
2020/02/13 13:18 PST  -99.99 -99.99    9  249   11 -99.9 -99.9 -999.9 -9.9 -9.999 -99.9 -99.99 -9.99
2020/02/13 13:24 PST  -99.99 -99.99   10  260   14 -99.9 -99.9 -999.9 -9.9 -9.999 -99.9 -99.99 -9.99
2020/02/13 13:30 PST  -99.99 -99.99   10  250   11 -99.9 -99.9 -999.9 -9.9 -9.999 -99.9 -99.99 -9.99
2020/02/13 13:36 PST  -99.99 -99.99    9  265   11 -99.9 -99.9 -999.9 -9.9 -9.999 -99.9 -99.99 -9.99
2020/02/13 13:42 PST  -99.99 -99.99    8  251   10 -99.9 -99.9 -999.9 -9.9 -9.999 -99.9 -99.99 -9.99
2020/02/13 13:48 PST  -99.99 -99.99    7  265   11 -99.9 -99.9 -999.9 -9.9 -9.999 -99.9 -99.99 -9.99
2020/02/13 13:54 PST  -99.99 -99.99    7  245    9 -99.9 -99.9 -999.9 -9.9 -9.999 -99.9 -99.99 -9.99
2020/02/13 14:00 PST  -99.99 -99.99    6  249    9 -99.9 -99.9 -999.9 -9.9 -9.999 -99.9 -99.99 -9.99
2020/02/13 14:06 PST  -99.99 -99.99    7  252    8 -99.9 -99.9 -999.9 -9.9 -9.999 -99.9 -99.99 -9.99
2020/02/13 14:12 PST  -99.99 -99.99    7  243    9 -99.9 -99.9 -999.9 -9.9 -9.999 -99.9 -99.99 -9.99
2020/02/13 14:18 PST  -99.99 -99.99    7  241   10 -99.9 -99.9 -999.9 -9.9 -9.999 -99.9 -99.99 -9.99
2020/02/13 14:24 PST  -99.99 -99.99    7  232   10 -99.9 -99.9 -999.9 -9.9 -9.999 -99.9 -99.99 -9.99
2020/02/13 14:30 PST  -99.99 -99.99    6  243    8 -99.9 -99.9 -999.9 -9.9 -9.999 -99.9 -99.99 -9.99
2020/02/13 14:36 PST  -99.99 -99.99    4  277    7 -99.9 -99.9 -999.9 -9.9 -9.999 -99.9 -99.99 -9.99
2020/02/13 14:42 PST  -99.99 -99.99    6  237    8 -99.9 -99.9 -999.9 -9.9 -9.999 -99.9 -99.99 -9.99
2020/02/13 14:48 PST  -99.99 -99.99    7  235    8 -99.9 -99.9 -999.9 -9.9 -9.999 -99.9 -99.99 -9.99
2020/02/13 14:54 PST  -99.99 -99.99    7  236    8 -99.9 -99.9 -999.9 -9.9 -9.999 -99.9 -99.99 -9.99
2020/02/13 15:00 PST  -99.99 -99.99    6  236    7 -99.9 -99.9 -999.9 -9.9 -9.999 -99.9 -99.99 -9.99
2020/02/13 15:06 PST  -99.99 -99.99    7  238    8 -99.9 -99.9 -999.9 -9.9 -9.999 -99.9 -99.99 -9.99
2020/02/13 15:12 PST  -99.99 -99.99    5  232    7 -99.9 -99.9 -999.9 -9.9 -9.999 -99.9 -99.99 -9.99
2020/02/13 15:18 PST  -99.99 -99.99    6  242    7 -99.9 -99.9 -999.9 -9.9 -9.999 -99.9 -99.99 -9.99
2020/02/13 15:24 PST  -99.99 -99.99    6  225    8 -99.9 -99.9 -999.9 -9.9 -9.999 -99.9 -99.99 -9.99
2020/02/13 15:30 PST  -99.99 -99.99    5  223    7 -99.9 -99.9 -999.9 -9.9 -9.999 -99.9 -99.99 -9.99
2020/02/13 15:36 PST  -99.99 -99.99    5  227    6 -99.9 -99.9 -999.9 -9.9 -9.999 -99.9 -99.99 -9.99
2020/02/13 15:42 PST  -99.99 -99.99    4  220    7 -99.9 -99.9 -999.9 -9.9 -9.999 -99.9 -99.99 -9.99
2020/02/13 15:48 PST  -99.99 -99.99    5  222    6 -99.9 -99.9 -999.9 -9.9 -9.999 -99.9 -99.99 -9.99
2020/02/13 15:54 PST  -99.99 -99.99    6  248    7 -99.9 -99.9 -999.9 -9.9 -9.999 -99.9 -99.99 -9.99
2020/02/13 16:00 PST  -99.99 -99.99    4  265    5 -99.9 -99.9 -999.9 -9.9 -9.999 -99.9 -99.99 -9.99
2020/02/13 16:06 PST  -99.99 -99.99    8  239    9 -99.9 -99.9 -999.9 -9.9 -9.999 -99.9 -99.99 -9.99
2020/02/13 16:12 PST  -99.99 -99.99    8  239    9 -99.9 -99.9 -999.9 -9.9 -9.999 -99.9 -99.99 -9.99
2020/02/13 16:18 PST  -99.99 -99.99    8  236    9 -99.9 -99.9 -999.9 -9.9 -9.999 -99.9 -99.99 -9.99
2020/02/13 16:24 PST  -99.99 -99.99    9  239    9 -99.9 -99.9 -999.9 -9.9 -9.999 -99.9 -99.99 -9.99
2020/02/13 16:30 PST  -99.99 -99.99    8  238   10 -99.9 -99.9 -999.9 -9.9 -9.999 -99.9 -99.99 -9.99
2020/02/13 16:36 PST  -99.99 -99.99    8  244    9 -99.9 -99.9 -999.9 -9.9 -9.999 -99.9 -99.99 -9.99
2020/02/13 16:42 PST  -99.99 -99.99    9  247   10 -99.9 -99.9 -999.9 -9.9 -9.999 -99.9 -99.99 -9.99
2020/02/13 16:48 PST  -99.99 -99.99    8  269   11 -99.9 -99.9 -999.9 -9.9 -9.999 -99.9 -99.99 -9.99
2020/02/13 16:54 PST  -99.99 -99.99   10  253   11 -99.9 -99.9 -999.9 -9.9 -9.999 -99.9 -99.99 -9.99
2020/02/13 17:00 PST  -99.99 -99.99    8  252   10 -99.9 -99.9 -999.9 -9.9 -9.999 -99.9 -99.99 -9.99
2020/02/13 17:06 PST  -99.99 -99.99    9  256   11 -99.9 -99.9 -999.9 -9.9 -9.999 -99.9 -99.99 -9.99
2020/02/13 17:12 PST  -99.99 -99.99   11  264   12 -99.9 -99.9 -999.9 -9.9 -9.999 -99.9 -99.99 -9.99
2020/02/13 17:18 PST  -99.99 -99.99   12  246   13 -99.9 -99.9 -999.9 -9.9 -9.999 -99.9 -99.99 -9.99
2020/02/13 17:24 PST  -99.99 -99.99   10  250   14 -99.9 -99.9 -999.9 -9.9 -9.999 -99.9 -99.99 -9.99
2020/02/13 17:30 PST  -99.99 -99.99   11  269   15 -99.9 -99.9 -999.9 -9.9 -9.999 -99.9 -99.99 -9.99
2020/02/13 17:36 PST  -99.99 -99.99   11  269   16 -99.9 -99.9 -999.9 -9.9 -9.999 -99.9 -99.99 -9.99
2020/02/13 17:42 PST  -99.99 -99.99   11  264   14 -99.9 -99.9 -999.9 -9.9 -9.999 -99.9 -99.99 -9.99
2020/02/13 17:48 PST  -99.99 -99.99   10  269   15 -99.9 -99.9 -999.9 -9.9 -9.999 -99.9 -99.99 -9.99
2020/02/13 17:54 PST  -99.99 -99.99   11  261   13 -99.9 -99.9 -999.9 -9.9 -9.999 -99.9 -99.99 -9.99
2020/02/13 18:00 PST  -99.99 -99.99   13  259   15 -99.9 -99.9 -999.9 -9.9 -9.999 -99.9 -99.99 -9.99
2020/02/13 18:06 PST  -99.99 -99.99   10  262   14 -99.9 -99.9 -999.9 -9.9 -9.999 -99.9 -99.99 -9.99
2020/02/13 18:12 PST  -99.99 -99.99   12  274   14 -99.9 -99.9 -999.9 -9.9 -9.999 -99.9 -99.99 -9.99
2020/02/13 18:18 PST  -99.99 -99.99   11  254   13 -99.9 -99.9 -999.9 -9.9 -9.999 -99.9 -99.99 -9.99
2020/02/13 18:24 PST  -99.99 -99.99   11  262   12 -99.9 -99.9 -999.9 -9.9 -9.999 -99.9 -99.99 -9.99
2020/02/13 18:30 PST  -99.99 -99.99   10  250   13 -99.9 -99.9 -999.9 -9.9 -9.999 -99.9 -99.99 -9.99
2020/02/13 18:36 PST  -99.99 -99.99   11  260   14 -99.9 -99.9 -999.9 -9.9 -9.999 -99.9 -99.99 -9.99
2020/02/13 18:42 PST  -99.99 -99.99   11  274   13 -99.9 -99.9 -999.9 -9.9 -9.999 -99.9 -99.99 -9.99
2020/02/13 18:48 PST  -99.99 -99.99    9  269   11 -99.9 -99.9 -999.9 -9.9 -9.999 -99.9 -99.99 -9.99
2020/02/13 18:54 PST  -99.99 -99.99   11  263   13 -99.9 -99.9 -999.9 -9.9 -9.999 -99.9 -99.99 -9.99
2020/02/13 19:00 PST  -99.99 -99.99   10  257   11 -99.9 -99.9 -999.9 -9.9 -9.999 -99.9 -99.99 -9.99
2020/02/13 19:06 PST  -99.99 -99.99   10  238   13 -99.9 -99.9 -999.9 -9.9 -9.999 -99.9 -99.99 -9.99
2020/02/13 19:12 PST  -99.99 -99.99    8  258   12 -99.9 -99.9 -999.9 -9.9 -9.999 -99.9 -99.99 -9.99
2020/02/13 19:18 PST  -99.99 -99.99    8  265   10 -99.9 -99.9 -999.9 -9.9 -9.999 -99.9 -99.99 -9.99
2020/02/13 19:24 PST  -99.99 -99.99    8  258    9 -99.9 -99.9 -999.9 -9.9 -9.999 -99.9 -99.99 -9.99
2020/02/13 19:30 PST  -99.99 -99.99    6  255   10 -99.9 -99.9 -999.9 -9.9 -9.999 -99.9 -99.99 -9.99
2020/02/13 19:36 PST  -99.99 -99.99    5  255    8 -99.9 -99.9 -999.9 -9.9 -9.999 -99.9 -99.99 -9.99
2020/02/13 19:42 PST  -99.99 -99.99    9  242   11 -99.9 -99.9 -999.9 -9.9 -9.999 -99.9 -99.99 -9.99
2020/02/13 19:48 PST  -99.99 -99.99   10  239   11 -99.9 -99.9 -999.9 -9.9 -9.999 -99.9 -99.99 -9.99
2020/02/13 19:54 PST  -99.99 -99.99   10  238   11 -99.9 -99.9 -999.9 -9.9 -9.999 -99.9 -99.99 -9.99
2020/02/13 20:00 PST  -99.99 -99.99    9  230   13 -99.9 -99.9 -999.9 -9.9 -9.999 -99.9 -99.99 -9.99
2020/02/13 20:06 PST  -99.99 -99.99    8  229   10 -99.9 -99.9 -999.9 -9.9 -9.999 -99.9 -99.99 -9.99
2020/02/13 20:12 PST  -99.99 -99.99    9  238   11 -99.9 -99.9 -999.9 -9.9 -9.999 -99.9 -99.99 -9.99
2020/02/13 20:18 PST  -99.99 -99.99    9  240   11 -99.9 -99.9 -999.9 -9.9 -9.999 -99.9 -99.99 -9.99
2020/02/13 20:24 PST  -99.99 -99.99    8  235   11 -99.9 -99.9 -999.9 -9.9 -9.999 -99.9 -99.99 -9.99
2020/02/13 20:30 PST  -99.99 -99.99    7  230   10 -99.9 -99.9 -999.9 -9.9 -9.999 -99.9 -99.99 -9.99
2020/02/13 20:36 PST  -99.99 -99.99    7  221    9 -99.9 -99.9 -999.9 -9.9 -9.999 -99.9 -99.99 -9.99
2020/02/13 20:42 PST  -99.99 -99.99    7  215    9 -99.9 -99.9 -999.9 -9.9 -9.999 -99.9 -99.99 -9.99
2020/02/13 20:48 PST  -99.99 -99.99    8  215   11 -99.9 -99.9 -999.9 -9.9 -9.999 -99.9 -99.99 -9.99
2020/02/13 20:54 PST  -99.99 -99.99    8  212   11 -99.9 -99.9 -999.9 -9.9 -9.999 -99.9 -99.99 -9.99
2020/02/13 21:00 PST  -99.99 -99.99    7  206   10 -99.9 -99.9 -999.9 -9.9 -9.999 -99.9 -99.99 -9.99
2020/02/13 21:06 PST  -99.99 -99.99    9  216   11 -99.9 -99.9 -999.9 -9.9 -9.999 -99.9 -99.99 -9.99
2020/02/13 21:12 PST  -99.99 -99.99    7  232   11 -99.9 -99.9 -999.9 -9.9 -9.999 -99.9 -99.99 -9.99
2020/02/13 21:18 PST  -99.99 -99.99    8  236   10 -99.9 -99.9 -999.9 -9.9 -9.999 -99.9 -99.99 -9.99
2020/02/13 21:24 PST  -99.99 -99.99   10  232   12 -99.9 -99.9 -999.9 -9.9 -9.999 -99.9 -99.99 -9.99
2020/02/13 21:30 PST  -99.99 -99.99   10  234   14 -99.9 -99.9 -999.9 -9.9 -9.999 -99.9 -99.99 -9.99
2020/02/13 21:36 PST  -99.99 -99.99   11  236   13 -99.9 -99.9 -999.9 -9.9 -9.999 -99.9 -99.99 -9.99
2020/02/13 21:42 PST  -99.99 -99.99   10  240   12 -99.9 -99.9 -999.9 -9.9 -9.999 -99.9 -99.99 -9.99
2020/02/13 21:48 PST  -99.99 -99.99    9  220   11 -99.9 -99.9 -999.9 -9.9 -9.999 -99.9 -99.99 -9.99
2020/02/13 21:54 PST  -99.99 -99.99    7  216   13 -99.9 -99.9 -999.9 -9.9 -9.999 -99.9 -99.99 -9.99
2020/02/13 22:00 PST  -99.99 -99.99    6  223   11 -99.9 -99.9 -999.9 -9.9 -9.999 -99.9 -99.99 -9.99
2020/02/13 22:06 PST  -99.99 -99.99    8  243   11 -99.9 -99.9 -999.9 -9.9 -9.999 -99.9 -99.99 -9.99
2020/02/13 22:12 PST  -99.99 -99.99    8  243   11 -99.9 -99.9 -999.9 -9.9 -9.999 -99.9 -99.99 -9.99
2020/02/13 22:18 PST  -99.99 -99.99    8  235   11 -99.9 -99.9 -999.9 -9.9 -9.999 -99.9 -99.99 -9.99
2020/02/13 22:24 PST  -99.99 -99.99    6  231    9 -99.9 -99.9 -999.9 -9.9 -9.999 -99.9 -99.99 -9.99
2020/02/13 22:30 PST  -99.99 -99.99    6  233    8 -99.9 -99.9 -999.9 -9.9 -9.999 -99.9 -99.99 -9.99
2020/02/13 22:36 PST  -99.99 -99.99    9  250   11 -99.9 -99.9 -999.9 -9.9 -9.999 -99.9 -99.99 -9.99
2020/02/13 22:42 PST  -99.99 -99.99    9  251   11 -99.9 -99.9 -999.9 -9.9 -9.999 -99.9 -99.99 -9.99
2020/02/13 22:48 PST  -99.99 -99.99    6  256   10 -99.9 -99.9 -999.9 -9.9 -9.999 -99.9 -99.99 -9.99
2020/02/13 22:54 PST  -99.99 -99.99    4  263    5 -99.9 -99.9 -999.9 -9.9 -9.999 -99.9 -99.99 -9.99
2020/02/13 23:00 PST  -99.99 -99.99    4  252    7 -99.9 -99.9 -999.9 -9.9 -9.999 -99.9 -99.99 -9.99
2020/02/13 23:06 PST  -99.99 -99.99    3  220    6 -99.9 -99.9 -999.9 -9.9 -9.999 -99.9 -99.99 -9.99
2020/02/13 23:12 PST  -99.99 -99.99    6  221    8 -99.9 -99.9 -999.9 -9.9 -9.999 -99.9 -99.99 -9.99
2020/02/13 23:18 PST  -99.99 -99.99    6  239    9 -99.9 -99.9 -999.9 -9.9 -9.999 -99.9 -99.99 -9.99
2020/02/13 23:24 PST  -99.99 -99.99    8  239   10 -99.9 -99.9 -999.9 -9.9 -9.999 -99.9 -99.99 -9.99
2020/02/13 23:30 PST  -99.99 -99.99    7  245   10 -99.9 -99.9 -999.9 -9.9 -9.999 -99.9 -99.99 -9.99
2020/02/13 23:36 PST  -99.99 -99.99    7  231   10 -99.9 -99.9 -999.9 -9.9 -9.999 -99.9 -99.99 -9.99
2020/02/13 23:42 PST  -99.99 -99.99    7  237    9 -99.9 -99.9 -999.9 -9.9 -9.999 -99.9 -99.99 -9.99
2020/02/13 23:48 PST  -99.99 -99.99    5  197    8 -99.9 -99.9 -999.9 -9.9 -9.999 -99.9 -99.99 -9.99
2020/02/13 23:54 PST  -99.99 -99.99    7  244   10 -99.9 -99.9 -999.9 -9.9 -9.999 -99.9 -99.99 -9.99
2020/02/14 00:00 PST  -99.99 -99.99    7  241   11 -99.9 -99.9 -999.9 -9.9 -9.999 -99.9 -99.99 -9.99
2020/02/14 00:06 PST  -99.99 -99.99    8  242    9 -99.9 -99.9 -999.9 -9.9 -9.999 -99.9 -99.99 -9.99
2020/02/14 00:12 PST  -99.99 -99.99    8  245   10 -99.9 -99.9 -999.9 -9.9 -9.999 -99.9 -99.99 -9.99
2020/02/14 00:18 PST  -99.99 -99.99    8  243   11 -99.9 -99.9 -999.9 -9.9 -9.999 -99.9 -99.99 -9.99
2020/02/14 00:24 PST  -99.99 -99.99    7  254   11 -99.9 -99.9 -999.9 -9.9 -9.999 -99.9 -99.99 -9.99
2020/02/14 00:30 PST  -99.99 -99.99   11  240   13 -99.9 -99.9 -999.9 -9.9 -9.999 -99.9 -99.99 -9.99
2020/02/14 00:36 PST  -99.99 -99.99    9  243   13 -99.9 -99.9 -999.9 -9.9 -9.999 -99.9 -99.99 -9.99
2020/02/14 00:42 PST  -99.99 -99.99    7  225   11 -99.9 -99.9 -999.9 -9.9 -9.999 -99.9 -99.99 -9.99
2020/02/14 00:48 PST  -99.99 -99.99    8  239   11 -99.9 -99.9 -999.9 -9.9 -9.999 -99.9 -99.99 -9.99
2020/02/14 00:54 PST  -99.99 -99.99    5  216    7 -99.9 -99.9 -999.9 -9.9 -9.999 -99.9 -99.99 -9.99
2020/02/14 01:00 PST  -99.99 -99.99    7  216   11 -99.9 -99.9 -999.9 -9.9 -9.999 -99.9 -99.99 -9.99
2020/02/14 01:06 PST  -99.99 -99.99    5  197   11 -99.9 -99.9 -999.9 -9.9 -9.999 -99.9 -99.99 -9.99
2020/02/14 01:12 PST  -99.99 -99.99    9  226   11 -99.9 -99.9 -999.9 -9.9 -9.999 -99.9 -99.99 -9.99
2020/02/14 01:18 PST  -99.99 -99.99    5  251   11 -99.9 -99.9 -999.9 -9.9 -9.999 -99.9 -99.99 -9.99
2020/02/14 01:24 PST  -99.99 -99.99    8  244   10 -99.9 -99.9 -999.9 -9.9 -9.999 -99.9 -99.99 -9.99
2020/02/14 01:30 PST  -99.99 -99.99    9  246   11 -99.9 -99.9 -999.9 -9.9 -9.999 -99.9 -99.99 -9.99
2020/02/14 01:36 PST  -99.99 -99.99    8  263   12 -99.9 -99.9 -999.9 -9.9 -9.999 -99.9 -99.99 -9.99
2020/02/14 01:42 PST  -99.99 -99.99   10  244   11 -99.9 -99.9 -999.9 -9.9 -9.999 -99.9 -99.99 -9.99
2020/02/14 01:48 PST  -99.99 -99.99    8  234   12 -99.9 -99.9 -999.9 -9.9 -9.999 -99.9 -99.99 -9.99
2020/02/14 01:54 PST  -99.99 -99.99    7  240    8 -99.9 -99.9 -999.9 -9.9 -9.999 -99.9 -99.99 -9.99
2020/02/14 02:00 PST  -99.99 -99.99    8  239   11 -99.9 -99.9 -999.9 -9.9 -9.999 -99.9 -99.99 -9.99
2020/02/14 02:06 PST  -99.99 -99.99    7  227   10 -99.9 -99.9 -999.9 -9.9 -9.999 -99.9 -99.99 -9.99
2020/02/14 02:12 PST  -99.99 -99.99    7  231    9 -99.9 -99.9 -999.9 -9.9 -9.999 -99.9 -99.99 -9.99
2020/02/14 02:18 PST  -99.99 -99.99    5  221    8 -99.9 -99.9 -999.9 -9.9 -9.999 -99.9 -99.99 -9.99
2020/02/14 02:24 PST  -99.99 -99.99    4  206    7 -99.9 -99.9 -999.9 -9.9 -9.999 -99.9 -99.99 -9.99
2020/02/14 02:30 PST  -99.99 -99.99    3  185    4 -99.9 -99.9 -999.9 -9.9 -9.999 -99.9 -99.99 -9.99
2020/02/14 02:36 PST  -99.99 -99.99    2  167    4 -99.9 -99.9 -999.9 -9.9 -9.999 -99.9 -99.99 -9.99
2020/02/14 02:42 PST  -99.99 -99.99    3  201    7 -99.9 -99.9 -999.9 -9.9 -9.999 -99.9 -99.99 -9.99
2020/02/14 02:48 PST  -99.99 -99.99    4  250    6 -99.9 -99.9 -999.9 -9.9 -9.999 -99.9 -99.99 -9.99
2020/02/14 02:54 PST  -99.99 -99.99    3  170    4 -99.9 -99.9 -999.9 -9.9 -9.999 -99.9 -99.99 -9.99
2020/02/14 03:00 PST  -99.99 -99.99    4  202    6 -99.9 -99.9 -999.9 -9.9 -9.999 -99.9 -99.99 -9.99
2020/02/14 03:06 PST  -99.99 -99.99    4  201    7 -99.9 -99.9 -999.9 -9.9 -9.999 -99.9 -99.99 -9.99
2020/02/14 03:12 PST  -99.99 -99.99    2  203    5 -99.9 -99.9 -999.9 -9.9 -9.999 -99.9 -99.99 -9.99
2020/02/14 03:18 PST  -99.99 -99.99    3  226    5 -99.9 -99.9 -999.9 -9.9 -9.999 -99.9 -99.99 -9.99
2020/02/14 03:24 PST  -99.99 -99.99    2  225    3 -99.9 -99.9 -999.9 -9.9 -9.999 -99.9 -99.99 -9.99
2020/02/14 03:30 PST  -99.99 -99.99    6  190    8 -99.9 -99.9 -999.9 -9.9 -9.999 -99.9 -99.99 -9.99
2020/02/14 03:36 PST  -99.99 -99.99    4  169    6 -99.9 -99.9 -999.9 -9.9 -9.999 -99.9 -99.99 -9.99
2020/02/14 03:42 PST  -99.99 -99.99    3  190    5 -99.9 -99.9 -999.9 -9.9 -9.999 -99.9 -99.99 -9.99
2020/02/14 03:48 PST  -99.99 -99.99    3  202    6 -99.9 -99.9 -999.9 -9.9 -9.999 -99.9 -99.99 -9.99
2020/02/14 03:54 PST  -99.99 -99.99    3  210    4 -99.9 -99.9 -999.9 -9.9 -9.999 -99.9 -99.99 -9.99
2020/02/14 04:00 PST  -99.99 -99.99    3  162    4 -99.9 -99.9 -999.9 -9.9 -9.999 -99.9 -99.99 -9.99
2020/02/14 04:06 PST  -99.99 -99.99    4  185    7 -99.9 -99.9 -999.9 -9.9 -9.999 -99.9 -99.99 -9.99
2020/02/14 04:12 PST  -99.99 -99.99    5  186    6 -99.9 -99.9 -999.9 -9.9 -9.999 -99.9 -99.99 -9.99
2020/02/14 04:18 PST  -99.99 -99.99    4  161    5 -99.9 -99.9 -999.9 -9.9 -9.999 -99.9 -99.99 -9.99
2020/02/14 04:24 PST  -99.99 -99.99    3  154    5 -99.9 -99.9 -999.9 -9.9 -9.999 -99.9 -99.99 -9.99
2020/02/14 04:30 PST  -99.99 -99.99    3  191    5 -99.9 -99.9 -999.9 -9.9 -9.999 -99.9 -99.99 -9.99
2020/02/14 04:36 PST  -99.99 -99.99    2  177    4 -99.9 -99.9 -999.9 -9.9 -9.999 -99.9 -99.99 -9.99
2020/02/14 04:42 PST  -99.99 -99.99    3  185    6 -99.9 -99.9 -999.9 -9.9 -9.999 -99.9 -99.99 -9.99
2020/02/14 04:48 PST  -99.99 -99.99    6  198    8 -99.9 -99.9 -999.9 -9.9 -9.999 -99.9 -99.99 -9.99
2020/02/14 04:54 PST  -99.99 -99.99    4  170    8 -99.9 -99.9 -999.9 -9.9 -9.999 -99.9 -99.99 -9.99
2020/02/14 05:00 PST  -99.99 -99.99    4  189    5 -99.9 -99.9 -999.9 -9.9 -9.999 -99.9 -99.99 -9.99
2020/02/14 05:06 PST  -99.99 -99.99    3  182    5 -99.9 -99.9 -999.9 -9.9 -9.999 -99.9 -99.99 -9.99
2020/02/14 05:12 PST  -99.99 -99.99    3  174    5 -99.9 -99.9 -999.9 -9.9 -9.999 -99.9 -99.99 -9.99
2020/02/14 05:18 PST  -99.99 -99.99    3  211    5 -99.9 -99.9 -999.9 -9.9 -9.999 -99.9 -99.99 -9.99
2020/02/14 05:24 PST  -99.99 -99.99    4  174    5 -99.9 -99.9 -999.9 -9.9 -9.999 -99.9 -99.99 -9.99
2020/02/14 05:30 PST  -99.99 -99.99    5  159    7 -99.9 -99.9 -999.9 -9.9 -9.999 -99.9 -99.99 -9.99
2020/02/14 05:36 PST  -99.99 -99.99    4  165    6 -99.9 -99.9 -999.9 -9.9 -9.999 -99.9 -99.99 -9.99
2020/02/14 05:42 PST  -99.99 -99.99    4  177    6 -99.9 -99.9 -999.9 -9.9 -9.999 -99.9 -99.99 -9.99
2020/02/14 05:48 PST  -99.99 -99.99    4  159    6 -99.9 -99.9 -999.9 -9.9 -9.999 -99.9 -99.99 -9.99
2020/02/14 05:54 PST  -99.99 -99.99    3  158    4 -99.9 -99.9 -999.9 -9.9 -9.999 -99.9 -99.99 -9.99
2020/02/14 06:00 PST  -99.99 -99.99    3  163    4 -99.9 -99.9 -999.9 -9.9 -9.999 -99.9 -99.99 -9.99
2020/02/14 06:06 PST  -99.99 -99.99    3  150    4 -99.9 -99.9 -999.9 -9.9 -9.999 -99.9 -99.99 -9.99
2020/02/14 06:12 PST  -99.99 -99.99    3  176    4 -99.9 -99.9 -999.9 -9.9 -9.999 -99.9 -99.99 -9.99
2020/02/14 06:18 PST  -99.99 -99.99    3  162    3 -99.9 -99.9 -999.9 -9.9 -9.999 -99.9 -99.99 -9.99
2020/02/14 06:24 PST  -99.99 -99.99    2  180    4 -99.9 -99.9 -999.9 -9.9 -9.999 -99.9 -99.99 -9.99
2020/02/14 06:30 PST  -99.99 -99.99    2  181    4 -99.9 -99.9 -999.9 -9.9 -9.999 -99.9 -99.99 -9.99
2020/02/14 06:36 PST  -99.99 -99.99    2  165    3 -99.9 -99.9 -999.9 -9.9 -9.999 -99.9 -99.99 -9.99
2020/02/14 06:42 PST  -99.99 -99.99    3  166    4 -99.9 -99.9 -999.9 -9.9 -9.999 -99.9 -99.99 -9.99
2020/02/14 06:48 PST  -99.99 -99.99    3  155    4 -99.9 -99.9 -999.9 -9.9 -9.999 -99.9 -99.99 -9.99
2020/02/14 06:54 PST  -99.99 -99.99    2  155    4 -99.9 -99.9 -999.9 -9.9 -9.999 -99.9 -99.99 -9.99
2020/02/14 07:00 PST  -99.99 -99.99    3  169    4 -99.9 -99.9 -999.9 -9.9 -9.999 -99.9 -99.99 -9.99
2020/02/14 07:06 PST  -99.99 -99.99    3  160    4 -99.9 -99.9 -999.9 -9.9 -9.999 -99.9 -99.99 -9.99
2020/02/14 07:12 PST  -99.99 -99.99    1  177    5 -99.9 -99.9 -999.9 -9.9 -9.999 -99.9 -99.99 -9.99
2020/02/14 07:18 PST  -99.99 -99.99    2   79    3 -99.9 -99.9 -999.9 -9.9 -9.999 -99.9 -99.99 -9.99
2020/02/14 07:24 PST  -99.99 -99.99    4  205    4 -99.9 -99.9 -999.9 -9.9 -9.999 -99.9 -99.99 -9.99
2020/02/14 07:30 PST  -99.99 -99.99    2  214    4 -99.9 -99.9 -999.9 -9.9 -9.999 -99.9 -99.99 -9.99
2020/02/14 07:36 PST  -99.99 -99.99    2  247    4 -99.9 -99.9 -999.9 -9.9 -9.999 -99.9 -99.99 -9.99
2020/02/14 07:42 PST  -99.99 -99.99    4  178    5 -99.9 -99.9 -999.9 -9.9 -9.999 -99.9 -99.99 -9.99
2020/02/14 07:48 PST  -99.99 -99.99    1   54    3 -99.9 -99.9 -999.9 -9.9 -9.999 -99.9 -99.99 -9.99
2020/02/14 07:54 PST  -99.99 -99.99    2   36    3 -99.9 -99.9 -999.9 -9.9 -9.999 -99.9 -99.99 -9.99
2020/02/14 08:00 PST  -99.99 -99.99    1  294    2 -99.9 -99.9 -999.9 -9.9 -9.999 -99.9 -99.99 -9.99
2020/02/14 08:06 PST  -99.99 -99.99    3  264    4 -99.9 -99.9 -999.9 -9.9 -9.999 -99.9 -99.99 -9.99
2020/02/14 08:12 PST  -99.99 -99.99    2  252    4 -99.9 -99.9 -999.9 -9.9 -9.999 -99.9 -99.99 -9.99
2020/02/14 08:18 PST  -99.99 -99.99    1  201    3 -99.9 -99.9 -999.9 -9.9 -9.999 -99.9 -99.99 -9.99
2020/02/14 08:24 PST  -99.99 -99.99    2  219    3 -99.9 -99.9 -999.9 -9.9 -9.999 -99.9 -99.99 -9.99
2020/02/14 08:30 PST  -99.99 -99.99    2  226    3 -99.9 -99.9 -999.9 -9.9 -9.999 -99.9 -99.99 -9.99
2020/02/14 08:36 PST  -99.99 -99.99    2  191    3 -99.9 -99.9 -999.9 -9.9 -9.999 -99.9 -99.99 -9.99
2020/02/14 08:42 PST  -99.99 -99.99    2  183    3 -99.9 -99.9 -999.9 -9.9 -9.999 -99.9 -99.99 -9.99
2020/02/14 08:48 PST  -99.99 -99.99    3  149    4 -99.9 -99.9 -999.9 -9.9 -9.999 -99.9 -99.99 -9.99
2020/02/14 08:54 PST  -99.99 -99.99    2  155    3 -99.9 -99.9 -999.9 -9.9 -9.999 -99.9 -99.99 -9.99
2020/02/14 09:00 PST  -99.99 -99.99    2   65    4 -99.9 -99.9 -999.9 -9.9 -9.999 -99.9 -99.99 -9.99
2020/02/14 09:06 PST  -99.99 -99.99    2   63    3 -99.9 -99.9 -999.9 -9.9 -9.999 -99.9 -99.99 -9.99
2020/02/14 09:12 PST  -99.99 -99.99    2   52    3 -99.9 -99.9 -999.9 -9.9 -9.999 -99.9 -99.99 -9.99
2020/02/14 09:18 PST  -99.99 -99.99    3    3    4 -99.9 -99.9 -999.9 -9.9 -9.999 -99.9 -99.99 -9.99
2020/02/14 09:24 PST  -99.99 -99.99    5   56    7 -99.9 -99.9 -999.9 -9.9 -9.999 -99.9 -99.99 -9.99
2020/02/14 09:30 PST  -99.99 -99.99    1   69    3 -99.9 -99.9 -999.9 -9.9 -9.999 -99.9 -99.99 -9.99
2020/02/14 09:36 PST  -99.99 -99.99    1   56    3 -99.9 -99.9 -999.9 -9.9 -9.999 -99.9 -99.99 -9.99
2020/02/14 09:42 PST  -99.99 -99.99    3  139    4 -99.9 -99.9 -999.9 -9.9 -9.999 -99.9 -99.99 -9.99
2020/02/14 09:48 PST  -99.99 -99.99    4  168    5 -99.9 -99.9 -999.9 -9.9 -9.999 -99.9 -99.99 -9.99
2020/02/14 09:54 PST  -99.99 -99.99    3  159    5 -99.9 -99.9 -999.9 -9.9 -9.999 -99.9 -99.99 -9.99
2020/02/14 10:00 PST  -99.99 -99.99    4  126    5 -99.9 -99.9 -999.9 -9.9 -9.999 -99.9 -99.99 -9.99
2020/02/14 10:06 PST  -99.99 -99.99    3  137    5 -99.9 -99.9 -999.9 -9.9 -9.999 -99.9 -99.99 -9.99
2020/02/14 10:12 PST  -99.99 -99.99    3  181    4 -99.9 -99.9 -999.9 -9.9 -9.999 -99.9 -99.99 -9.99
2020/02/14 10:18 PST  -99.99 -99.99    3  227    4 -99.9 -99.9 -999.9 -9.9 -9.999 -99.9 -99.99 -9.99
2020/02/14 10:24 PST  -99.99 -99.99    3  233    4 -99.9 -99.9 -999.9 -9.9 -9.999 -99.9 -99.99 -9.99
2020/02/14 10:30 PST  -99.99 -99.99    3  264    4 -99.9 -99.9 -999.9 -9.9 -9.999 -99.9 -99.99 -9.99
2020/02/14 10:36 PST  -99.99 -99.99    4  245    5 -99.9 -99.9 -999.9 -9.9 -9.999 -99.9 -99.99 -9.99
2020/02/14 10:42 PST  -99.99 -99.99    5  246    6 -99.9 -99.9 -999.9 -9.9 -9.999 -99.9 -99.99 -9.99
2020/02/14 10:48 PST  -99.99 -99.99    4  242    5 -99.9 -99.9 -999.9 -9.9 -9.999 -99.9 -99.99 -9.99
2020/02/14 10:54 PST  -99.99 -99.99    4  239    5 -99.9 -99.9 -999.9 -9.9 -9.999 -99.9 -99.99 -9.99
2020/02/14 11:00 PST  -99.99 -99.99    5  235    5 -99.9 -99.9 -999.9 -9.9 -9.999 -99.9 -99.99 -9.99
2020/02/14 11:06 PST  -99.99 -99.99    5  240    6 -99.9 -99.9 -999.9 -9.9 -9.999 -99.9 -99.99 -9.99
2020/02/14 11:12 PST  -99.99 -99.99    5  232    6 -99.9 -99.9 -999.9 -9.9 -9.999 -99.9 -99.99 -9.99
2020/02/14 11:18 PST  -99.99 -99.99    5  226    7 -99.9 -99.9 -999.9 -9.9 -9.999 -99.9 -99.99 -9.99
2020/02/14 11:24 PST  -99.99 -99.99    5  217    6 -99.9 -99.9 -999.9 -9.9 -9.999 -99.9 -99.99 -9.99
2020/02/14 11:30 PST  -99.99 -99.99    6  206    7 -99.9 -99.9 -999.9 -9.9 -9.999 -99.9 -99.99 -9.99
2020/02/14 11:36 PST  -99.99 -99.99    6  201    7 -99.9 -99.9 -999.9 -9.9 -9.999 -99.9 -99.99 -9.99
2020/02/14 11:42 PST  -99.99 -99.99    3  334    7 -99.9 -99.9 -999.9 -9.9 -9.999 -99.9 -99.99 -9.99
2020/02/14 11:48 PST  -99.99 -99.99    6  205    8 -99.9 -99.9 -999.9 -9.9 -9.999 -99.9 -99.99 -9.99
2020/02/14 11:54 PST  -99.99 -99.99    6  209    7 -99.9 -99.9 -999.9 -9.9 -9.999 -99.9 -99.99 -9.99
2020/02/14 12:00 PST  -99.99 -99.99    6  212    7 -99.9 -99.9 -999.9 -9.9 -9.999 -99.9 -99.99 -9.99
2020/02/14 12:06 PST  -99.99 -99.99    4  219    6 -99.9 -99.9 -999.9 -9.9 -9.999 -99.9 -99.99 -9.99
2020/02/14 12:12 PST  -99.99 -99.99    3  222    5 -99.9 -99.9 -999.9 -9.9 -9.999 -99.9 -99.99 -9.99
2020/02/14 12:18 PST  -99.99 -99.99    4  220    5 -99.9 -99.9 -999.9 -9.9 -9.999 -99.9 -99.99 -9.99
2020/02/14 12:24 PST  -99.99 -99.99    4  225    5 -99.9 -99.9 -999.9 -9.9 -9.999 -99.9 -99.99 -9.99
2020/02/14 12:30 PST  -99.99 -99.99    3  222    5 -99.9 -99.9 -999.9 -9.9 -9.999 -99.9 -99.99 -9.99
2020/02/14 12:36 PST  -99.99 -99.99    4  229    4 -99.9 -99.9 -999.9 -9.9 -9.999 -99.9 -99.99 -9.99
2020/02/14 12:42 PST  -99.99 -99.99    4  245    4 -99.9 -99.9 -999.9 -9.9 -9.999 -99.9 -99.99 -9.99
2020/02/14 12:48 PST  -99.99 -99.99    4  240    4 -99.9 -99.9 -999.9 -9.9 -9.999 -99.9 -99.99 -9.99
2020/02/14 12:54 PST  -99.99 -99.99    2  306    4 -99.9 -99.9 -999.9 -9.9 -9.999 -99.9 -99.99 -9.99
2020/02/14 13:00 PST  -99.99 -99.99    5  337    5 -99.9 -99.9 -999.9 -9.9 -9.999 -99.9 -99.99 -9.99
2020/02/14 13:06 PST  -99.99 -99.99    5  327    7 -99.9 -99.9 -999.9 -9.9 -9.999 -99.9 -99.99 -9.99
2020/02/14 13:12 PST  -99.99 -99.99    4  324    6 -99.9 -99.9 -999.9 -9.9 -9.999 -99.9 -99.99 -9.99
2020/02/14 13:18 PST  -99.99 -99.99    5  313    7 -99.9 -99.9 -999.9 -9.9 -9.999 -99.9 -99.99 -9.99
2020/02/14 13:24 PST  -99.99 -99.99    5  296    7 -99.9 -99.9 -999.9 -9.9 -9.999 -99.9 -99.99 -9.99
2020/02/14 13:30 PST  -99.99 -99.99    5  269    6 -99.9 -99.9 -999.9 -9.9 -9.999 -99.9 -99.99 -9.99
2020/02/14 13:36 PST  -99.99 -99.99    4  257    6 -99.9 -99.9 -999.9 -9.9 -9.999 -99.9 -99.99 -9.99
2020/02/14 13:42 PST  -99.99 -99.99    5  276    6 -99.9 -99.9 -999.9 -9.9 -9.999 -99.9 -99.99 -9.99
2020/02/14 13:48 PST  -99.99 -99.99    6  271    7 -99.9 -99.9 -999.9 -9.9 -9.999 -99.9 -99.99 -9.99
2020/02/14 13:54 PST  -99.99 -99.99    6  271    7 -99.9 -99.9 -999.9 -9.9 -9.999 -99.9 -99.99 -9.99
2020/02/14 14:00 PST  -99.99 -99.99    4  253    6 -99.9 -99.9 -999.9 -9.9 -9.999 -99.9 -99.99 -9.99
2020/02/14 14:06 PST  -99.99 -99.99    5  254    6 -99.9 -99.9 -999.9 -9.9 -9.999 -99.9 -99.99 -9.99
2020/02/14 14:12 PST  -99.99 -99.99    4  251    5 -99.9 -99.9 -999.9 -9.9 -9.999 -99.9 -99.99 -9.99
2020/02/14 14:18 PST  -99.99 -99.99    4  271    5 -99.9 -99.9 -999.9 -9.9 -9.999 -99.9 -99.99 -9.99
2020/02/14 14:24 PST  -99.99 -99.99    5  272    6 -99.9 -99.9 -999.9 -9.9 -9.999 -99.9 -99.99 -9.99
2020/02/14 14:30 PST  -99.99 -99.99    5  268    6 -99.9 -99.9 -999.9 -9.9 -9.999 -99.9 -99.99 -9.99
2020/02/14 14:36 PST  -99.99 -99.99    5  277    7 -99.9 -99.9 -999.9 -9.9 -9.999 -99.9 -99.99 -9.99
2020/02/14 14:42 PST  -99.99 -99.99    5  289    8 -99.9 -99.9 -999.9 -9.9 -9.999 -99.9 -99.99 -9.99
2020/02/14 14:48 PST  -99.99 -99.99    5  296    7 -99.9 -99.9 -999.9 -9.9 -9.999 -99.9 -99.99 -9.99
2020/02/14 14:54 PST  -99.99 -99.99    6  296    8 -99.9 -99.9 -999.9 -9.9 -9.999 -99.9 -99.99 -9.99
2020/02/14 15:00 PST  -99.99 -99.99    6  293    7 -99.9 -99.9 -999.9 -9.9 -9.999 -99.9 -99.99 -9.99
2020/02/14 15:06 PST  -99.99 -99.99    6  281    8 -99.9 -99.9 -999.9 -9.9 -9.999 -99.9 -99.99 -9.99
2020/02/14 15:12 PST  -99.99 -99.99    6  266    8 -99.9 -99.9 -999.9 -9.9 -9.999 -99.9 -99.99 -9.99
2020/02/14 15:18 PST  -99.99 -99.99    7  279    8 -99.9 -99.9 -999.9 -9.9 -9.999 -99.9 -99.99 -9.99
2020/02/14 15:24 PST  -99.99 -99.99    6  277    7 -99.9 -99.9 -999.9 -9.9 -9.999 -99.9 -99.99 -9.99
2020/02/14 15:30 PST  -99.99 -99.99    7  280    8 -99.9 -99.9 -999.9 -9.9 -9.999 -99.9 -99.99 -9.99
2020/02/14 15:36 PST  -99.99 -99.99    7  279    8 -99.9 -99.9 -999.9 -9.9 -9.999 -99.9 -99.99 -9.99
2020/02/14 15:42 PST  -99.99 -99.99    6  284    7 -99.9 -99.9 -999.9 -9.9 -9.999 -99.9 -99.99 -9.99
2020/02/14 15:48 PST  -99.99 -99.99    7  290    9 -99.9 -99.9 -999.9 -9.9 -9.999 -99.9 -99.99 -9.99
2020/02/14 15:54 PST  -99.99 -99.99    8  285    9 -99.9 -99.9 -999.9 -9.9 -9.999 -99.9 -99.99 -9.99
2020/02/14 16:00 PST  -99.99 -99.99   10  282   11 -99.9 -99.9 -999.9 -9.9 -9.999 -99.9 -99.99 -9.99
2020/02/14 16:06 PST  -99.99 -99.99    9  282   11 -99.9 -99.9 -999.9 -9.9 -9.999 -99.9 -99.99 -9.99
2020/02/14 16:12 PST  -99.99 -99.99    8  280   11 -99.9 -99.9 -999.9 -9.9 -9.999 -99.9 -99.99 -9.99
2020/02/14 16:18 PST  -99.99 -99.99    8  280    9 -99.9 -99.9 -999.9 -9.9 -9.999 -99.9 -99.99 -9.99
2020/02/14 16:24 PST  -99.99 -99.99    8  281   10 -99.9 -99.9 -999.9 -9.9 -9.999 -99.9 -99.99 -9.99
2020/02/14 16:30 PST  -99.99 -99.99    7  277    8 -99.9 -99.9 -999.9 -9.9 -9.999 -99.9 -99.99 -9.99
2020/02/14 16:36 PST  -99.99 -99.99    8  281    9 -99.9 -99.9 -999.9 -9.9 -9.999 -99.9 -99.99 -9.99
2020/02/14 16:42 PST  -99.99 -99.99    7  279    9 -99.9 -99.9 -999.9 -9.9 -9.999 -99.9 -99.99 -9.99
2020/02/14 16:48 PST  -99.99 -99.99    8  282    9 -99.9 -99.9 -999.9 -9.9 -9.999 -99.9 -99.99 -9.99
2020/02/14 16:54 PST  -99.99 -99.99    8  282    9 -99.9 -99.9 -999.9 -9.9 -9.999 -99.9 -99.99 -9.99
2020/02/14 17:00 PST  -99.99 -99.99    8  279    9 -99.9 -99.9 -999.9 -9.9 -9.999 -99.9 -99.99 -9.99
2020/02/14 17:06 PST  -99.99 -99.99    8  281    9 -99.9 -99.9 -999.9 -9.9 -9.999 -99.9 -99.99 -9.99
2020/02/14 17:12 PST  -99.99 -99.99    7  277    9 -99.9 -99.9 -999.9 -9.9 -9.999 -99.9 -99.99 -9.99
2020/02/14 17:18 PST  -99.99 -99.99    5  263    8 -99.9 -99.9 -999.9 -9.9 -9.999 -99.9 -99.99 -9.99
2020/02/14 17:24 PST  -99.99 -99.99    6  268    7 -99.9 -99.9 -999.9 -9.9 -9.999 -99.9 -99.99 -9.99
2020/02/14 17:30 PST  -99.99 -99.99    6  263    8 -99.9 -99.9 -999.9 -9.9 -9.999 -99.9 -99.99 -9.99
2020/02/14 17:36 PST  -99.99 -99.99    5  251    6 -99.9 -99.9 -999.9 -9.9 -9.999 -99.9 -99.99 -9.99
2020/02/14 17:42 PST  -99.99 -99.99    4  256    6 -99.9 -99.9 -999.9 -9.9 -9.999 -99.9 -99.99 -9.99
2020/02/14 17:48 PST  -99.99 -99.99    4  253    5 -99.9 -99.9 -999.9 -9.9 -9.999 -99.9 -99.99 -9.99
2020/02/14 17:54 PST  -99.99 -99.99    3  234    4 -99.9 -99.9 -999.9 -9.9 -9.999 -99.9 -99.99 -9.99
2020/02/14 18:00 PST  -99.99 -99.99    3  259    4 -99.9 -99.9 -999.9 -9.9 -9.999 -99.9 -99.99 -9.99
2020/02/14 18:06 PST  -99.99 -99.99    3  260    4 -99.9 -99.9 -999.9 -9.9 -9.999 -99.9 -99.99 -9.99
2020/02/14 18:12 PST  -99.99 -99.99    5  265    5 -99.9 -99.9 -999.9 -9.9 -9.999 -99.9 -99.99 -9.99
2020/02/14 18:18 PST  -99.99 -99.99    4  249    5 -99.9 -99.9 -999.9 -9.9 -9.999 -99.9 -99.99 -9.99
2020/02/14 18:24 PST  -99.99 -99.99    3  259    4 -99.9 -99.9 -999.9 -9.9 -9.999 -99.9 -99.99 -9.99
2020/02/14 18:30 PST  -99.99 -99.99    5  259    6 -99.9 -99.9 -999.9 -9.9 -9.999 -99.9 -99.99 -9.99
2020/02/14 18:36 PST  -99.99 -99.99    4  262    6 -99.9 -99.9 -999.9 -9.9 -9.999 -99.9 -99.99 -9.99
2020/02/14 18:42 PST  -99.99 -99.99    3  276    4 -99.9 -99.9 -999.9 -9.9 -9.999 -99.9 -99.99 -9.99
2020/02/14 18:48 PST  -99.99 -99.99    3  265    3 -99.9 -99.9 -999.9 -9.9 -9.999 -99.9 -99.99 -9.99
2020/02/14 18:54 PST  -99.99 -99.99    2  224    3 -99.9 -99.9 -999.9 -9.9 -9.999 -99.9 -99.99 -9.99
2020/02/14 19:00 PST  -99.99 -99.99    2  176    2 -99.9 -99.9 -999.9 -9.9 -9.999 -99.9 -99.99 -9.99
2020/02/14 19:06 PST  -99.99 -99.99    3  212    4 -99.9 -99.9 -999.9 -9.9 -9.999 -99.9 -99.99 -9.99
2020/02/14 19:12 PST  -99.99 -99.99    4  239    5 -99.9 -99.9 -999.9 -9.9 -9.999 -99.9 -99.99 -9.99
2020/02/14 19:18 PST  -99.99 -99.99    0  140    3 -99.9 -99.9 -999.9 -9.9 -9.999 -99.9 -99.99 -9.99
2020/02/14 19:24 PST  -99.99 -99.99    3  147    3 -99.9 -99.9 -999.9 -9.9 -9.999 -99.9 -99.99 -9.99
2020/02/14 19:30 PST  -99.99 -99.99    2  140    3 -99.9 -99.9 -999.9 -9.9 -9.999 -99.9 -99.99 -9.99
2020/02/14 19:36 PST  -99.99 -99.99    2  138    2 -99.9 -99.9 -999.9 -9.9 -9.999 -99.9 -99.99 -9.99
2020/02/14 19:42 PST  -99.99 -99.99    1  109    1 -99.9 -99.9 -999.9 -9.9 -9.999 -99.9 -99.99 -9.99
2020/02/14 19:48 PST  -99.99 -99.99    0  104    1 -99.9 -99.9 -999.9 -9.9 -9.999 -99.9 -99.99 -9.99
2020/02/14 19:54 PST  -99.99 -99.99    0  147    1 -99.9 -99.9 -999.9 -9.9 -9.999 -99.9 -99.99 -9.99
2020/02/14 20:00 PST  -99.99 -99.99    1  125    1 -99.9 -99.9 -999.9 -9.9 -9.999 -99.9 -99.99 -9.99
2020/02/14 20:06 PST  -99.99 -99.99    1  104    1 -99.9 -99.9 -999.9 -9.9 -9.999 -99.9 -99.99 -9.99
2020/02/14 20:12 PST  -99.99 -99.99    1  137    2 -99.9 -99.9 -999.9 -9.9 -9.999 -99.9 -99.99 -9.99
2020/02/14 20:18 PST  -99.99 -99.99    1  142    2 -99.9 -99.9 -999.9 -9.9 -9.999 -99.9 -99.99 -9.99
2020/02/14 20:24 PST  -99.99 -99.99    2  167    2 -99.9 -99.9 -999.9 -9.9 -9.999 -99.9 -99.99 -9.99
2020/02/14 20:30 PST  -99.99 -99.99    1  206    2 -99.9 -99.9 -999.9 -9.9 -9.999 -99.9 -99.99 -9.99
2020/02/14 20:36 PST  -99.99 -99.99    1  177    1 -99.9 -99.9 -999.9 -9.9 -9.999 -99.9 -99.99 -9.99
2020/02/14 20:42 PST  -99.99 -99.99    1  164    1 -99.9 -99.9 -999.9 -9.9 -9.999 -99.9 -99.99 -9.99
2020/02/14 20:48 PST  -99.99 -99.99    1  169    1 -99.9 -99.9 -999.9 -9.9 -9.999 -99.9 -99.99 -9.99
2020/02/14 20:54 PST  -99.99 -99.99    2  107    2 -99.9 -99.9 -999.9 -9.9 -9.999 -99.9 -99.99 -9.99
2020/02/14 21:00 PST  -99.99 -99.99    1  194    1 -99.9 -99.9 -999.9 -9.9 -9.999 -99.9 -99.99 -9.99
2020/02/14 21:06 PST  -99.99 -99.99    2  262    2 -99.9 -99.9 -999.9 -9.9 -9.999 -99.9 -99.99 -9.99
2020/02/14 21:12 PST  -99.99 -99.99    1  221    1 -99.9 -99.9 -999.9 -9.9 -9.999 -99.9 -99.99 -9.99
2020/02/14 21:18 PST  -99.99 -99.99    1  204    2 -99.9 -99.9 -999.9 -9.9 -9.999 -99.9 -99.99 -9.99
2020/02/14 21:24 PST  -99.99 -99.99    2  219    2 -99.9 -99.9 -999.9 -9.9 -9.999 -99.9 -99.99 -9.99
2020/02/14 21:30 PST  -99.99 -99.99    1  178    2 -99.9 -99.9 -999.9 -9.9 -9.999 -99.9 -99.99 -9.99
2020/02/14 21:36 PST  -99.99 -99.99    1  215    2 -99.9 -99.9 -999.9 -9.9 -9.999 -99.9 -99.99 -9.99
2020/02/14 21:42 PST  -99.99 -99.99    1  216    1 -99.9 -99.9 -999.9 -9.9 -9.999 -99.9 -99.99 -9.99
2020/02/14 21:48 PST  -99.99 -99.99    1  244    1 -99.9 -99.9 -999.9 -9.9 -9.999 -99.9 -99.99 -9.99
2020/02/14 21:54 PST  -99.99 -99.99    1  260    1 -99.9 -99.9 -999.9 -9.9 -9.999 -99.9 -99.99 -9.99
2020/02/14 22:00 PST  -99.99 -99.99    1  208    1 -99.9 -99.9 -999.9 -9.9 -9.999 -99.9 -99.99 -9.99
2020/02/14 22:06 PST  -99.99 -99.99    3  188    3 -99.9 -99.9 -999.9 -9.9 -9.999 -99.9 -99.99 -9.99
2020/02/14 22:12 PST  -99.99 -99.99    1  196    3 -99.9 -99.9 -999.9 -9.9 -9.999 -99.9 -99.99 -9.99
2020/02/14 22:18 PST  -99.99 -99.99    0  264    2 -99.9 -99.9 -999.9 -9.9 -9.999 -99.9 -99.99 -9.99
2020/02/14 22:24 PST  -99.99 -99.99    0  208    1 -99.9 -99.9 -999.9 -9.9 -9.999 -99.9 -99.99 -9.99
2020/02/14 22:30 PST  -99.99 -99.99    1  171    1 -99.9 -99.9 -999.9 -9.9 -9.999 -99.9 -99.99 -9.99
2020/02/14 22:36 PST  -99.99 -99.99    0  266    1 -99.9 -99.9 -999.9 -9.9 -9.999 -99.9 -99.99 -9.99
2020/02/14 22:42 PST  -99.99 -99.99    1  307    2 -99.9 -99.9 -999.9 -9.9 -9.999 -99.9 -99.99 -9.99
2020/02/14 22:48 PST  -99.99 -99.99    1  303    2 -99.9 -99.9 -999.9 -9.9 -9.999 -99.9 -99.99 -9.99
2020/02/14 22:54 PST  -99.99 -99.99    1  278    2 -99.9 -99.9 -999.9 -9.9 -9.999 -99.9 -99.99 -9.99
2020/02/14 23:00 PST  -99.99 -99.99    1  228    2 -99.9 -99.9 -999.9 -9.9 -9.999 -99.9 -99.99 -9.99
2020/02/14 23:06 PST  -99.99 -99.99    1  215    1 -99.9 -99.9 -999.9 -9.9 -9.999 -99.9 -99.99 -9.99
2020/02/14 23:12 PST  -99.99 -99.99    2  133    3 -99.9 -99.9 -999.9 -9.9 -9.999 -99.9 -99.99 -9.99
2020/02/14 23:18 PST  -99.99 -99.99    3  137    3 -99.9 -99.9 -999.9 -9.9 -9.999 -99.9 -99.99 -9.99
2020/02/14 23:24 PST  -99.99 -99.99    3  145    3 -99.9 -99.9 -999.9 -9.9 -9.999 -99.9 -99.99 -9.99
2020/02/14 23:30 PST  -99.99 -99.99    3  121    4 -99.9 -99.9 -999.9 -9.9 -9.999 -99.9 -99.99 -9.99
2020/02/14 23:36 PST  -99.99 -99.99    3  125    3 -99.9 -99.9 -999.9 -9.9 -9.999 -99.9 -99.99 -9.99
2020/02/14 23:42 PST  -99.99 -99.99    4  129    4 -99.9 -99.9 -999.9 -9.9 -9.999 -99.9 -99.99 -9.99
2020/02/14 23:48 PST  -99.99 -99.99    3  110    4 -99.9 -99.9 -999.9 -9.9 -9.999 -99.9 -99.99 -9.99
2020/02/14 23:54 PST  -99.99 -99.99    3  128    3 -99.9 -99.9 -999.9 -9.9 -9.999 -99.9 -99.99 -9.99
2020/02/15 00:00 PST  -99.99 -99.99    3  123    4 -99.9 -99.9 -999.9 -9.9 -9.999 -99.9 -99.99 -9.99
2020/02/15 00:06 PST  -99.99 -99.99    3  127    4 -99.9 -99.9 -999.9 -9.9 -9.999 -99.9 -99.99 -9.99
2020/02/15 00:12 PST  -99.99 -99.99    4  128    5 -99.9 -99.9 -999.9 -9.9 -9.999 -99.9 -99.99 -9.99
2020/02/15 00:18 PST  -99.99 -99.99    5  133    5 -99.9 -99.9 -999.9 -9.9 -9.999 -99.9 -99.99 -9.99
2020/02/15 00:24 PST  -99.99 -99.99    5  132    6 -99.9 -99.9 -999.9 -9.9 -9.999 -99.9 -99.99 -9.99
2020/02/15 00:30 PST  -99.99 -99.99    4  134    6 -99.9 -99.9 -999.9 -9.9 -9.999 -99.9 -99.99 -9.99
2020/02/15 00:36 PST  -99.99 -99.99    3  138    4 -99.9 -99.9 -999.9 -9.9 -9.999 -99.9 -99.99 -9.99
2020/02/15 00:42 PST  -99.99 -99.99    4  145    5 -99.9 -99.9 -999.9 -9.9 -9.999 -99.9 -99.99 -9.99
2020/02/15 00:48 PST  -99.99 -99.99    5  145    6 -99.9 -99.9 -999.9 -9.9 -9.999 -99.9 -99.99 -9.99
2020/02/15 00:54 PST  -99.99 -99.99    4  135    5 -99.9 -99.9 -999.9 -9.9 -9.999 -99.9 -99.99 -9.99
2020/02/15 01:00 PST  -99.99 -99.99    4  131    5 -99.9 -99.9 -999.9 -9.9 -9.999 -99.9 -99.99 -9.99
2020/02/15 01:06 PST  -99.99 -99.99    4  138    6 -99.9 -99.9 -999.9 -9.9 -9.999 -99.9 -99.99 -9.99
2020/02/15 01:12 PST  -99.99 -99.99    4  147    4 -99.9 -99.9 -999.9 -9.9 -9.999 -99.9 -99.99 -9.99
2020/02/15 01:18 PST  -99.99 -99.99    3  142    4 -99.9 -99.9 -999.9 -9.9 -9.999 -99.9 -99.99 -9.99
2020/02/15 01:24 PST  -99.99 -99.99    3  144    4 -99.9 -99.9 -999.9 -9.9 -9.999 -99.9 -99.99 -9.99
2020/02/15 01:30 PST  -99.99 -99.99    4  140    5 -99.9 -99.9 -999.9 -9.9 -9.999 -99.9 -99.99 -9.99
2020/02/15 01:36 PST  -99.99 -99.99    5  128    5 -99.9 -99.9 -999.9 -9.9 -9.999 -99.9 -99.99 -9.99
2020/02/15 01:42 PST  -99.99 -99.99    5  116    5 -99.9 -99.9 -999.9 -9.9 -9.999 -99.9 -99.99 -9.99
2020/02/15 01:48 PST  -99.99 -99.99    4  135    5 -99.9 -99.9 -999.9 -9.9 -9.999 -99.9 -99.99 -9.99
2020/02/15 01:54 PST  -99.99 -99.99    4  131    5 -99.9 -99.9 -999.9 -9.9 -9.999 -99.9 -99.99 -9.99
2020/02/15 02:00 PST  -99.99 -99.99    4  130    4 -99.9 -99.9 -999.9 -9.9 -9.999 -99.9 -99.99 -9.99
2020/02/15 02:06 PST  -99.99 -99.99    5  122    5 -99.9 -99.9 -999.9 -9.9 -9.999 -99.9 -99.99 -9.99
2020/02/15 02:12 PST  -99.99 -99.99    6  119    6 -99.9 -99.9 -999.9 -9.9 -9.999 -99.9 -99.99 -9.99
2020/02/15 02:18 PST  -99.99 -99.99    6  121    7 -99.9 -99.9 -999.9 -9.9 -9.999 -99.9 -99.99 -9.99
2020/02/15 02:24 PST  -99.99 -99.99    6  119    7 -99.9 -99.9 -999.9 -9.9 -9.999 -99.9 -99.99 -9.99
2020/02/15 02:30 PST  -99.99 -99.99    6  121    8 -99.9 -99.9 -999.9 -9.9 -9.999 -99.9 -99.99 -9.99
2020/02/15 02:36 PST  -99.99 -99.99    6  123    8 -99.9 -99.9 -999.9 -9.9 -9.999 -99.9 -99.99 -9.99
2020/02/15 02:42 PST  -99.99 -99.99    6  129    8 -99.9 -99.9 -999.9 -9.9 -9.999 -99.9 -99.99 -9.99
2020/02/15 02:48 PST  -99.99 -99.99    6  129    7 -99.9 -99.9 -999.9 -9.9 -9.999 -99.9 -99.99 -9.99
2020/02/15 02:54 PST  -99.99 -99.99    5  122    7 -99.9 -99.9 -999.9 -9.9 -9.999 -99.9 -99.99 -9.99
2020/02/15 03:00 PST  -99.99 -99.99    6  130    7 -99.9 -99.9 -999.9 -9.9 -9.999 -99.9 -99.99 -9.99
2020/02/15 03:06 PST  -99.99 -99.99    6  135    7 -99.9 -99.9 -999.9 -9.9 -9.999 -99.9 -99.99 -9.99
2020/02/15 03:12 PST  -99.99 -99.99    5  139    6 -99.9 -99.9 -999.9 -9.9 -9.999 -99.9 -99.99 -9.99
2020/02/15 03:18 PST  -99.99 -99.99    5  137    6 -99.9 -99.9 -999.9 -9.9 -9.999 -99.9 -99.99 -9.99
2020/02/15 03:24 PST  -99.99 -99.99    5  143    6 -99.9 -99.9 -999.9 -9.9 -9.999 -99.9 -99.99 -9.99
2020/02/15 03:30 PST  -99.99 -99.99    4  143    5 -99.9 -99.9 -999.9 -9.9 -9.999 -99.9 -99.99 -9.99
2020/02/15 03:36 PST  -99.99 -99.99    4  141    4 -99.9 -99.9 -999.9 -9.9 -9.999 -99.9 -99.99 -9.99
2020/02/15 03:42 PST  -99.99 -99.99    5  134    6 -99.9 -99.9 -999.9 -9.9 -9.999 -99.9 -99.99 -9.99
2020/02/15 03:48 PST  -99.99 -99.99    5  138    6 -99.9 -99.9 -999.9 -9.9 -9.999 -99.9 -99.99 -9.99
2020/02/15 03:54 PST  -99.99 -99.99    5  140    6 -99.9 -99.9 -999.9 -9.9 -9.999 -99.9 -99.99 -9.99
2020/02/15 04:00 PST  -99.99 -99.99    5  136    6 -99.9 -99.9 -999.9 -9.9 -9.999 -99.9 -99.99 -9.99
2020/02/15 04:06 PST  -99.99 -99.99    6  135    7 -99.9 -99.9 -999.9 -9.9 -9.999 -99.9 -99.99 -9.99
2020/02/15 04:12 PST  -99.99 -99.99    5  129    6 -99.9 -99.9 -999.9 -9.9 -9.999 -99.9 -99.99 -9.99
2020/02/15 04:18 PST  -99.99 -99.99    6  133    7 -99.9 -99.9 -999.9 -9.9 -9.999 -99.9 -99.99 -9.99
2020/02/15 04:24 PST  -99.99 -99.99    6  134    7 -99.9 -99.9 -999.9 -9.9 -9.999 -99.9 -99.99 -9.99
2020/02/15 04:30 PST  -99.99 -99.99    7  139    8 -99.9 -99.9 -999.9 -9.9 -9.999 -99.9 -99.99 -9.99
2020/02/15 04:36 PST  -99.99 -99.99    6  132    8 -99.9 -99.9 -999.9 -9.9 -9.999 -99.9 -99.99 -9.99
2020/02/15 04:42 PST  -99.99 -99.99    7  129    7 -99.9 -99.9 -999.9 -9.9 -9.999 -99.9 -99.99 -9.99
2020/02/15 04:48 PST  -99.99 -99.99    6  132    7 -99.9 -99.9 -999.9 -9.9 -9.999 -99.9 -99.99 -9.99
2020/02/15 04:54 PST  -99.99 -99.99    5  134    7 -99.9 -99.9 -999.9 -9.9 -9.999 -99.9 -99.99 -9.99
2020/02/15 05:00 PST  -99.99 -99.99    5  129    6 -99.9 -99.9 -999.9 -9.9 -9.999 -99.9 -99.99 -9.99
2020/02/15 05:06 PST  -99.99 -99.99    4  132    5 -99.9 -99.9 -999.9 -9.9 -9.999 -99.9 -99.99 -9.99
2020/02/15 05:12 PST  -99.99 -99.99    4  134    4 -99.9 -99.9 -999.9 -9.9 -9.999 -99.9 -99.99 -9.99
2020/02/15 05:18 PST  -99.99 -99.99    4  122    5 -99.9 -99.9 -999.9 -9.9 -9.999 -99.9 -99.99 -9.99
2020/02/15 05:24 PST  -99.99 -99.99    3  126    4 -99.9 -99.9 -999.9 -9.9 -9.999 -99.9 -99.99 -9.99
2020/02/15 05:30 PST  -99.99 -99.99    4  117    5 -99.9 -99.9 -999.9 -9.9 -9.999 -99.9 -99.99 -9.99
2020/02/15 05:36 PST  -99.99 -99.99    5  129    5 -99.9 -99.9 -999.9 -9.9 -9.999 -99.9 -99.99 -9.99
2020/02/15 05:42 PST  -99.99 -99.99    5  124    5 -99.9 -99.9 -999.9 -9.9 -9.999 -99.9 -99.99 -9.99
2020/02/15 05:48 PST  -99.99 -99.99    4  125    6 -99.9 -99.9 -999.9 -9.9 -9.999 -99.9 -99.99 -9.99
2020/02/15 05:54 PST  -99.99 -99.99    5  126    6 -99.9 -99.9 -999.9 -9.9 -9.999 -99.9 -99.99 -9.99
2020/02/15 06:00 PST  -99.99 -99.99    4  120    6 -99.9 -99.9 -999.9 -9.9 -9.999 -99.9 -99.99 -9.99
2020/02/15 06:06 PST  -99.99 -99.99    4  112    5 -99.9 -99.9 -999.9 -9.9 -9.999 -99.9 -99.99 -9.99
2020/02/15 06:12 PST  -99.99 -99.99    3  106    4 -99.9 -99.9 -999.9 -9.9 -9.999 -99.9 -99.99 -9.99
2020/02/15 06:18 PST  -99.99 -99.99    3  127    4 -99.9 -99.9 -999.9 -9.9 -9.999 -99.9 -99.99 -9.99
2020/02/15 06:24 PST  -99.99 -99.99    3  139    4 -99.9 -99.9 -999.9 -9.9 -9.999 -99.9 -99.99 -9.99
2020/02/15 06:30 PST  -99.99 -99.99    4  145    5 -99.9 -99.9 -999.9 -9.9 -9.999 -99.9 -99.99 -9.99
2020/02/15 06:36 PST  -99.99 -99.99    3  147    5 -99.9 -99.9 -999.9 -9.9 -9.999 -99.9 -99.99 -9.99
2020/02/15 06:42 PST  -99.99 -99.99    3  131    4 -99.9 -99.9 -999.9 -9.9 -9.999 -99.9 -99.99 -9.99
2020/02/15 06:48 PST  -99.99 -99.99    7  234    7 -99.9 -99.9 -999.9 -9.9 -9.999 -99.9 -99.99 -9.99
2020/02/15 06:54 PST  -99.99 -99.99    5  219    7 -99.9 -99.9 -999.9 -9.9 -9.999 -99.9 -99.99 -9.99
2020/02/15 07:00 PST  -99.99 -99.99    5  215    6 -99.9 -99.9 -999.9 -9.9 -9.999 -99.9 -99.99 -9.99
2020/02/15 07:06 PST  -99.99 -99.99    4  190    6 -99.9 -99.9 -999.9 -9.9 -9.999 -99.9 -99.99 -9.99
2020/02/15 07:12 PST  -99.99 -99.99    3  175    4 -99.9 -99.9 -999.9 -9.9 -9.999 -99.9 -99.99 -9.99
2020/02/15 07:18 PST  -99.99 -99.99    3  172    4 -99.9 -99.9 -999.9 -9.9 -9.999 -99.9 -99.99 -9.99
2020/02/15 07:24 PST  -99.99 -99.99    2  152    4 -99.9 -99.9 -999.9 -9.9 -9.999 -99.9 -99.99 -9.99
2020/02/15 07:30 PST  -99.99 -99.99    3  142    4 -99.9 -99.9 -999.9 -9.9 -9.999 -99.9 -99.99 -9.99
2020/02/15 07:36 PST  -99.99 -99.99    4  155    5 -99.9 -99.9 -999.9 -9.9 -9.999 -99.9 -99.99 -9.99
2020/02/15 07:42 PST  -99.99 -99.99    3  113    5 -99.9 -99.9 -999.9 -9.9 -9.999 -99.9 -99.99 -9.99
2020/02/15 07:48 PST  -99.99 -99.99    3  132    4 -99.9 -99.9 -999.9 -9.9 -9.999 -99.9 -99.99 -9.99
2020/02/15 07:54 PST  -99.99 -99.99    4  117    4 -99.9 -99.9 -999.9 -9.9 -9.999 -99.9 -99.99 -9.99
2020/02/15 08:00 PST  -99.99 -99.99    4  129    4 -99.9 -99.9 -999.9 -9.9 -9.999 -99.9 -99.99 -9.99
2020/02/15 08:06 PST  -99.99 -99.99    2  119    4 -99.9 -99.9 -999.9 -9.9 -9.999 -99.9 -99.99 -9.99
2020/02/15 08:12 PST  -99.99 -99.99    2  103    2 -99.9 -99.9 -999.9 -9.9 -9.999 -99.9 -99.99 -9.99
2020/02/15 08:18 PST  -99.99 -99.99    1   88    2 -99.9 -99.9 -999.9 -9.9 -9.999 -99.9 -99.99 -9.99
2020/02/15 08:24 PST  -99.99 -99.99    2   83    2 -99.9 -99.9 -999.9 -9.9 -9.999 -99.9 -99.99 -9.99
2020/02/15 08:30 PST  -99.99 -99.99    1  129    2 -99.9 -99.9 -999.9 -9.9 -9.999 -99.9 -99.99 -9.99
2020/02/15 08:36 PST  -99.99 -99.99    1  105    2 -99.9 -99.9 -999.9 -9.9 -9.999 -99.9 -99.99 -9.99
2020/02/15 08:42 PST  -99.99 -99.99    1  130    2 -99.9 -99.9 -999.9 -9.9 -9.999 -99.9 -99.99 -9.99
2020/02/15 08:48 PST  -99.99 -99.99    1  166    3 -99.9 -99.9 -999.9 -9.9 -9.999 -99.9 -99.99 -9.99
2020/02/15 08:54 PST  -99.99 -99.99    3  201    4 -99.9 -99.9 -999.9 -9.9 -9.999 -99.9 -99.99 -9.99
2020/02/15 09:00 PST  -99.99 -99.99    3  196    4 -99.9 -99.9 -999.9 -9.9 -9.999 -99.9 -99.99 -9.99
2020/02/15 09:06 PST  -99.99 -99.99    3  235    3 -99.9 -99.9 -999.9 -9.9 -9.999 -99.9 -99.99 -9.99
2020/02/15 09:12 PST  -99.99 -99.99    4  233    5 -99.9 -99.9 -999.9 -9.9 -9.999 -99.9 -99.99 -9.99
2020/02/15 09:18 PST  -99.99 -99.99    7  231    8 -99.9 -99.9 -999.9 -9.9 -9.999 -99.9 -99.99 -9.99
2020/02/15 09:24 PST  -99.99 -99.99    5  234    7 -99.9 -99.9 -999.9 -9.9 -9.999 -99.9 -99.99 -9.99
2020/02/15 09:30 PST  -99.99 -99.99    4  240    7 -99.9 -99.9 -999.9 -9.9 -9.999 -99.9 -99.99 -9.99
2020/02/15 09:36 PST  -99.99 -99.99    4  239    5 -99.9 -99.9 -999.9 -9.9 -9.999 -99.9 -99.99 -9.99
2020/02/15 09:42 PST  -99.99 -99.99    4  234    5 -99.9 -99.9 -999.9 -9.9 -9.999 -99.9 -99.99 -9.99
2020/02/15 09:48 PST  -99.99 -99.99    4  219    5 -99.9 -99.9 -999.9 -9.9 -9.999 -99.9 -99.99 -9.99
2020/02/15 09:54 PST  -99.99 -99.99    4  208    5 -99.9 -99.9 -999.9 -9.9 -9.999 -99.9 -99.99 -9.99
2020/02/15 10:00 PST  -99.99 -99.99    4  202    5 -99.9 -99.9 -999.9 -9.9 -9.999 -99.9 -99.99 -9.99
2020/02/15 10:06 PST  -99.99 -99.99    3  212    4 -99.9 -99.9 -999.9 -9.9 -9.999 -99.9 -99.99 -9.99
2020/02/15 10:12 PST  -99.99 -99.99    2  198    3 -99.9 -99.9 -999.9 -9.9 -9.999 -99.9 -99.99 -9.99
2020/02/15 10:18 PST  -99.99 -99.99    2  212    3 -99.9 -99.9 -999.9 -9.9 -9.999 -99.9 -99.99 -9.99
2020/02/15 10:24 PST  -99.99 -99.99    1  219    3 -99.9 -99.9 -999.9 -9.9 -9.999 -99.9 -99.99 -9.99
2020/02/15 10:30 PST  -99.99 -99.99    1  215    2 -99.9 -99.9 -999.9 -9.9 -9.999 -99.9 -99.99 -9.99
2020/02/15 10:36 PST  -99.99 -99.99    2  242    2 -99.9 -99.9 -999.9 -9.9 -9.999 -99.9 -99.99 -9.99
2020/02/15 10:42 PST  -99.99 -99.99    1  250    2 -99.9 -99.9 -999.9 -9.9 -9.999 -99.9 -99.99 -9.99
2020/02/15 10:48 PST  -99.99 -99.99    1  271    1 -99.9 -99.9 -999.9 -9.9 -9.999 -99.9 -99.99 -9.99
2020/02/15 10:54 PST  -99.99 -99.99    1  295    2 -99.9 -99.9 -999.9 -9.9 -9.999 -99.9 -99.99 -9.99
2020/02/15 11:00 PST  -99.99 -99.99    6  338    7 -99.9 -99.9 -999.9 -9.9 -9.999 -99.9 -99.99 -9.99
2020/02/15 11:06 PST  -99.99 -99.99    6  345    7 -99.9 -99.9 -999.9 -9.9 -9.999 -99.9 -99.99 -9.99
2020/02/15 11:12 PST  -99.99 -99.99    6  351    7 -99.9 -99.9 -999.9 -9.9 -9.999 -99.9 -99.99 -9.99
2020/02/15 11:18 PST  -99.99 -99.99    6  342    7 -99.9 -99.9 -999.9 -9.9 -9.999 -99.9 -99.99 -9.99
2020/02/15 11:24 PST  -99.99 -99.99    5  342    6 -99.9 -99.9 -999.9 -9.9 -9.999 -99.9 -99.99 -9.99
2020/02/15 11:30 PST  -99.99 -99.99    2  336    5 -99.9 -99.9 -999.9 -9.9 -9.999 -99.9 -99.99 -9.99
2020/02/15 11:36 PST  -99.99 -99.99    3  307    4 -99.9 -99.9 -999.9 -9.9 -9.999 -99.9 -99.99 -9.99
2020/02/15 11:42 PST  -99.99 -99.99    5  322    6 -99.9 -99.9 -999.9 -9.9 -9.999 -99.9 -99.99 -9.99
2020/02/15 11:48 PST  -99.99 -99.99    5  323    6 -99.9 -99.9 -999.9 -9.9 -9.999 -99.9 -99.99 -9.99
2020/02/15 11:54 PST  -99.99 -99.99    4  344    5 -99.9 -99.9 -999.9 -9.9 -9.999 -99.9 -99.99 -9.99
2020/02/15 12:00 PST  -99.99 -99.99    4  342    4 -99.9 -99.9 -999.9 -9.9 -9.999 -99.9 -99.99 -9.99
2020/02/15 12:06 PST  -99.99 -99.99    2  349    6 -99.9 -99.9 -999.9 -9.9 -9.999 -99.9 -99.99 -9.99
2020/02/15 12:12 PST  -99.99 -99.99    3  322    4 -99.9 -99.9 -999.9 -9.9 -9.999 -99.9 -99.99 -9.99
2020/02/15 12:18 PST  -99.99 -99.99    3  327    4 -99.9 -99.9 -999.9 -9.9 -9.999 -99.9 -99.99 -9.99
2020/02/15 12:24 PST  -99.99 -99.99    4  315    5 -99.9 -99.9 -999.9 -9.9 -9.999 -99.9 -99.99 -9.99
2020/02/15 12:30 PST  -99.99 -99.99    5  310    6 -99.9 -99.9 -999.9 -9.9 -9.999 -99.9 -99.99 -9.99
2020/02/15 12:36 PST  -99.99 -99.99    5  324    6 -99.9 -99.9 -999.9 -9.9 -9.999 -99.9 -99.99 -9.99
2020/02/15 12:42 PST  -99.99 -99.99    5  324    7 -99.9 -99.9 -999.9 -9.9 -9.999 -99.9 -99.99 -9.99
2020/02/15 12:48 PST  -99.99 -99.99    3  329    5 -99.9 -99.9 -999.9 -9.9 -9.999 -99.9 -99.99 -9.99
2020/02/15 12:54 PST  -99.99 -99.99    4  311    5 -99.9 -99.9 -999.9 -9.9 -9.999 -99.9 -99.99 -9.99
2020/02/15 13:00 PST  -99.99 -99.99    4  298    6 -99.9 -99.9 -999.9 -9.9 -9.999 -99.9 -99.99 -9.99
2020/02/15 13:06 PST  -99.99 -99.99    6  273    6 -99.9 -99.9 -999.9 -9.9 -9.999 -99.9 -99.99 -9.99
2020/02/15 13:12 PST  -99.99 -99.99    7  307    7 -99.9 -99.9 -999.9 -9.9 -9.999 -99.9 -99.99 -9.99
2020/02/15 13:18 PST  -99.99 -99.99    7  303    8 -99.9 -99.9 -999.9 -9.9 -9.999 -99.9 -99.99 -9.99
2020/02/15 13:24 PST  -99.99 -99.99    5  330    7 -99.9 -99.9 -999.9 -9.9 -9.999 -99.9 -99.99 -9.99
2020/02/15 13:30 PST  -99.99 -99.99    5  327    8 -99.9 -99.9 -999.9 -9.9 -9.999 -99.9 -99.99 -9.99
2020/02/15 13:36 PST  -99.99 -99.99    6  309    6 -99.9 -99.9 -999.9 -9.9 -9.999 -99.9 -99.99 -9.99
2020/02/15 13:42 PST  -99.99 -99.99    6  310    7 -99.9 -99.9 -999.9 -9.9 -9.999 -99.9 -99.99 -9.99
2020/02/15 13:48 PST  -99.99 -99.99    5  302    7 -99.9 -99.9 -999.9 -9.9 -9.999 -99.9 -99.99 -9.99
2020/02/15 13:54 PST  -99.99 -99.99    7  304    7 -99.9 -99.9 -999.9 -9.9 -9.999 -99.9 -99.99 -9.99
2020/02/15 14:00 PST  -99.99 -99.99    8  304    9 -99.9 -99.9 -999.9 -9.9 -9.999 -99.9 -99.99 -9.99
2020/02/15 14:06 PST  -99.99 -99.99    9  306   10 -99.9 -99.9 -999.9 -9.9 -9.999 -99.9 -99.99 -9.99
2020/02/15 14:12 PST  -99.99 -99.99    6  291    9 -99.9 -99.9 -999.9 -9.9 -9.999 -99.9 -99.99 -9.99
2020/02/15 14:18 PST  -99.99 -99.99    5  281    7 -99.9 -99.9 -999.9 -9.9 -9.999 -99.9 -99.99 -9.99
2020/02/15 14:24 PST  -99.99 -99.99    7  304    9 -99.9 -99.9 -999.9 -9.9 -9.999 -99.9 -99.99 -9.99
2020/02/15 14:30 PST  -99.99 -99.99    7  300    9 -99.9 -99.9 -999.9 -9.9 -9.999 -99.9 -99.99 -9.99
2020/02/15 14:36 PST  -99.99 -99.99    7  301    9 -99.9 -99.9 -999.9 -9.9 -9.999 -99.9 -99.99 -9.99
2020/02/15 14:42 PST  -99.99 -99.99    8  299    9 -99.9 -99.9 -999.9 -9.9 -9.999 -99.9 -99.99 -9.99
2020/02/15 14:48 PST  -99.99 -99.99    7  297   10 -99.9 -99.9 -999.9 -9.9 -9.999 -99.9 -99.99 -9.99
2020/02/15 14:54 PST  -99.99 -99.99    5  294    8 -99.9 -99.9 -999.9 -9.9 -9.999 -99.9 -99.99 -9.99
2020/02/15 15:00 PST  -99.99 -99.99    6  293    8 -99.9 -99.9 -999.9 -9.9 -9.999 -99.9 -99.99 -9.99
2020/02/15 15:06 PST  -99.99 -99.99    6  288    7 -99.9 -99.9 -999.9 -9.9 -9.999 -99.9 -99.99 -9.99
2020/02/15 15:12 PST  -99.99 -99.99    6  274    8 -99.9 -99.9 -999.9 -9.9 -9.999 -99.9 -99.99 -9.99
2020/02/15 15:18 PST  -99.99 -99.99    6  278    7 -99.9 -99.9 -999.9 -9.9 -9.999 -99.9 -99.99 -9.99
2020/02/15 15:24 PST  -99.99 -99.99    6  275    7 -99.9 -99.9 -999.9 -9.9 -9.999 -99.9 -99.99 -9.99
2020/02/15 15:30 PST  -99.99 -99.99    6  278    7 -99.9 -99.9 -999.9 -9.9 -9.999 -99.9 -99.99 -9.99
2020/02/15 15:36 PST  -99.99 -99.99    7  287    7 -99.9 -99.9 -999.9 -9.9 -9.999 -99.9 -99.99 -9.99
2020/02/15 15:42 PST  -99.99 -99.99    8  283    9 -99.9 -99.9 -999.9 -9.9 -9.999 -99.9 -99.99 -9.99
2020/02/15 15:48 PST  -99.99 -99.99    7  280    9 -99.9 -99.9 -999.9 -9.9 -9.999 -99.9 -99.99 -9.99
2020/02/15 15:54 PST  -99.99 -99.99    7  284    8 -99.9 -99.9 -999.9 -9.9 -9.999 -99.9 -99.99 -9.99
2020/02/15 16:00 PST  -99.99 -99.99    8  278    9 -99.9 -99.9 -999.9 -9.9 -9.999 -99.9 -99.99 -9.99
2020/02/15 16:06 PST  -99.99 -99.99    9  287    9 -99.9 -99.9 -999.9 -9.9 -9.999 -99.9 -99.99 -9.99
2020/02/15 16:12 PST  -99.99 -99.99    8  285   10 -99.9 -99.9 -999.9 -9.9 -9.999 -99.9 -99.99 -9.99
2020/02/15 16:18 PST  -99.99 -99.99    7  283    9 -99.9 -99.9 -999.9 -9.9 -9.999 -99.9 -99.99 -9.99
2020/02/15 16:24 PST  -99.99 -99.99    9  280   10 -99.9 -99.9 -999.9 -9.9 -9.999 -99.9 -99.99 -9.99
2020/02/15 16:30 PST  -99.99 -99.99    9  286   10 -99.9 -99.9 -999.9 -9.9 -9.999 -99.9 -99.99 -9.99
2020/02/15 16:36 PST  -99.99 -99.99    8  288    9 -99.9 -99.9 -999.9 -9.9 -9.999 -99.9 -99.99 -9.99
2020/02/15 16:42 PST  -99.99 -99.99    9  280   10 -99.9 -99.9 -999.9 -9.9 -9.999 -99.9 -99.99 -9.99
2020/02/15 16:48 PST  -99.99 -99.99   11  281   11 -99.9 -99.9 -999.9 -9.9 -9.999 -99.9 -99.99 -9.99
2020/02/15 16:54 PST  -99.99 -99.99   10  279   11 -99.9 -99.9 -999.9 -9.9 -9.999 -99.9 -99.99 -9.99
2020/02/15 17:00 PST  -99.99 -99.99    9  267   11 -99.9 -99.9 -999.9 -9.9 -9.999 -99.9 -99.99 -9.99
2020/02/15 17:06 PST  -99.99 -99.99    7  253    9 -99.9 -99.9 -999.9 -9.9 -9.999 -99.9 -99.99 -9.99
2020/02/15 17:12 PST  -99.99 -99.99    6  250    8 -99.9 -99.9 -999.9 -9.9 -9.999 -99.9 -99.99 -9.99
2020/02/15 17:18 PST  -99.99 -99.99    7  251    8 -99.9 -99.9 -999.9 -9.9 -9.999 -99.9 -99.99 -9.99
2020/02/15 17:24 PST  -99.99 -99.99    7  257    8 -99.9 -99.9 -999.9 -9.9 -9.999 -99.9 -99.99 -9.99
2020/02/15 17:30 PST  -99.99 -99.99    5  262    7 -99.9 -99.9 -999.9 -9.9 -9.999 -99.9 -99.99 -9.99
2020/02/15 17:36 PST  -99.99 -99.99    3  251    7 -99.9 -99.9 -999.9 -9.9 -9.999 -99.9 -99.99 -9.99
2020/02/15 17:42 PST  -99.99 -99.99    3  244    4 -99.9 -99.9 -999.9 -9.9 -9.999 -99.9 -99.99 -9.99
2020/02/15 17:48 PST  -99.99 -99.99    2  211    3 -99.9 -99.9 -999.9 -9.9 -9.999 -99.9 -99.99 -9.99
2020/02/15 17:54 PST  -99.99 -99.99    4  237    5 -99.9 -99.9 -999.9 -9.9 -9.999 -99.9 -99.99 -9.99
2020/02/15 18:00 PST  -99.99 -99.99    5  229    5 -99.9 -99.9 -999.9 -9.9 -9.999 -99.9 -99.99 -9.99
2020/02/15 18:06 PST  -99.99 -99.99    4  242    5 -99.9 -99.9 -999.9 -9.9 -9.999 -99.9 -99.99 -9.99
2020/02/15 18:12 PST  -99.99 -99.99    4  250    5 -99.9 -99.9 -999.9 -9.9 -9.999 -99.9 -99.99 -9.99
2020/02/15 18:18 PST  -99.99 -99.99    5  229    6 -99.9 -99.9 -999.9 -9.9 -9.999 -99.9 -99.99 -9.99
2020/02/15 18:24 PST  -99.99 -99.99    6  234    7 -99.9 -99.9 -999.9 -9.9 -9.999 -99.9 -99.99 -9.99
2020/02/15 18:30 PST  -99.99 -99.99    7  247    8 -99.9 -99.9 -999.9 -9.9 -9.999 -99.9 -99.99 -9.99
2020/02/15 18:36 PST  -99.99 -99.99    6  247    8 -99.9 -99.9 -999.9 -9.9 -9.999 -99.9 -99.99 -9.99
2020/02/15 18:42 PST  -99.99 -99.99    6  249    7 -99.9 -99.9 -999.9 -9.9 -9.999 -99.9 -99.99 -9.99
2020/02/15 18:48 PST  -99.99 -99.99    5  253    6 -99.9 -99.9 -999.9 -9.9 -9.999 -99.9 -99.99 -9.99
2020/02/15 18:54 PST  -99.99 -99.99    4  252    7 -99.9 -99.9 -999.9 -9.9 -9.999 -99.9 -99.99 -9.99
2020/02/15 19:00 PST  -99.99 -99.99    3  300    4 -99.9 -99.9 -999.9 -9.9 -9.999 -99.9 -99.99 -9.99
2020/02/15 19:06 PST  -99.99 -99.99    2   17    3 -99.9 -99.9 -999.9 -9.9 -9.999 -99.9 -99.99 -9.99
2020/02/15 19:12 PST  -99.99 -99.99    2   29    3 -99.9 -99.9 -999.9 -9.9 -9.999 -99.9 -99.99 -9.99
2020/02/15 19:18 PST  -99.99 -99.99    2   65    3 -99.9 -99.9 -999.9 -9.9 -9.999 -99.9 -99.99 -9.99
2020/02/15 19:24 PST  -99.99 -99.99    2   73    3 -99.9 -99.9 -999.9 -9.9 -9.999 -99.9 -99.99 -9.99
2020/02/15 19:30 PST  -99.99 -99.99    3   68    3 -99.9 -99.9 -999.9 -9.9 -9.999 -99.9 -99.99 -9.99
2020/02/15 19:36 PST  -99.99 -99.99    3   91    4 -99.9 -99.9 -999.9 -9.9 -9.999 -99.9 -99.99 -9.99
2020/02/15 19:42 PST  -99.99 -99.99    3  103    5 -99.9 -99.9 -999.9 -9.9 -9.999 -99.9 -99.99 -9.99
2020/02/15 19:48 PST  -99.99 -99.99    4  139    5 -99.9 -99.9 -999.9 -9.9 -9.999 -99.9 -99.99 -9.99
2020/02/15 19:54 PST  -99.99 -99.99    6  120    7 -99.9 -99.9 -999.9 -9.9 -9.999 -99.9 -99.99 -9.99
2020/02/15 20:00 PST  -99.99 -99.99    5  129    6 -99.9 -99.9 -999.9 -9.9 -9.999 -99.9 -99.99 -9.99
2020/02/15 20:06 PST  -99.99 -99.99    3  144    5 -99.9 -99.9 -999.9 -9.9 -9.999 -99.9 -99.99 -9.99
2020/02/15 20:12 PST  -99.99 -99.99    2  171    3 -99.9 -99.9 -999.9 -9.9 -9.999 -99.9 -99.99 -9.99
2020/02/15 20:18 PST  -99.99 -99.99    2  183    3 -99.9 -99.9 -999.9 -9.9 -9.999 -99.9 -99.99 -9.99
2020/02/15 20:24 PST  -99.99 -99.99    3  176    4 -99.9 -99.9 -999.9 -9.9 -9.999 -99.9 -99.99 -9.99
2020/02/15 20:30 PST  -99.99 -99.99    4  181    5 -99.9 -99.9 -999.9 -9.9 -9.999 -99.9 -99.99 -9.99
2020/02/15 20:36 PST  -99.99 -99.99    3  169    4 -99.9 -99.9 -999.9 -9.9 -9.999 -99.9 -99.99 -9.99
2020/02/15 20:42 PST  -99.99 -99.99    4  168    4 -99.9 -99.9 -999.9 -9.9 -9.999 -99.9 -99.99 -9.99
2020/02/15 20:48 PST  -99.99 -99.99    4  168    4 -99.9 -99.9 -999.9 -9.9 -9.999 -99.9 -99.99 -9.99
2020/02/15 20:54 PST  -99.99 -99.99    3  179    4 -99.9 -99.9 -999.9 -9.9 -9.999 -99.9 -99.99 -9.99
2020/02/15 21:00 PST  -99.99 -99.99    3  164    4 -99.9 -99.9 -999.9 -9.9 -9.999 -99.9 -99.99 -9.99
2020/02/15 21:06 PST  -99.99 -99.99    3  147    3 -99.9 -99.9 -999.9 -9.9 -9.999 -99.9 -99.99 -9.99
2020/02/15 21:12 PST  -99.99 -99.99    2  149    3 -99.9 -99.9 -999.9 -9.9 -9.999 -99.9 -99.99 -9.99
2020/02/15 21:18 PST  -99.99 -99.99    3  139    4 -99.9 -99.9 -999.9 -9.9 -9.999 -99.9 -99.99 -9.99
2020/02/15 21:24 PST  -99.99 -99.99    4  111    5 -99.9 -99.9 -999.9 -9.9 -9.999 -99.9 -99.99 -9.99
2020/02/15 21:30 PST  -99.99 -99.99    6  127    7 -99.9 -99.9 -999.9 -9.9 -9.999 -99.9 -99.99 -9.99
2020/02/15 21:36 PST  -99.99 -99.99    2   85    6 -99.9 -99.9 -999.9 -9.9 -9.999 -99.9 -99.99 -9.99
2020/02/15 21:42 PST  -99.99 -99.99    4  139    5 -99.9 -99.9 -999.9 -9.9 -9.999 -99.9 -99.99 -9.99
2020/02/15 21:48 PST  -99.99 -99.99    4  130    4 -99.9 -99.9 -999.9 -9.9 -9.999 -99.9 -99.99 -9.99
2020/02/15 21:54 PST  -99.99 -99.99    4  139    4 -99.9 -99.9 -999.9 -9.9 -9.999 -99.9 -99.99 -9.99
2020/02/15 22:00 PST  -99.99 -99.99    4  142    4 -99.9 -99.9 -999.9 -9.9 -9.999 -99.9 -99.99 -9.99
2020/02/15 22:06 PST  -99.99 -99.99    4  140    4 -99.9 -99.9 -999.9 -9.9 -9.999 -99.9 -99.99 -9.99
2020/02/15 22:12 PST  -99.99 -99.99    4  141    4 -99.9 -99.9 -999.9 -9.9 -9.999 -99.9 -99.99 -9.99
2020/02/15 22:18 PST  -99.99 -99.99    4  146    4 -99.9 -99.9 -999.9 -9.9 -9.999 -99.9 -99.99 -9.99
2020/02/15 22:24 PST  -99.99 -99.99    5  149    5 -99.9 -99.9 -999.9 -9.9 -9.999 -99.9 -99.99 -9.99
2020/02/15 22:30 PST  -99.99 -99.99    5  135    5 -99.9 -99.9 -999.9 -9.9 -9.999 -99.9 -99.99 -9.99
2020/02/15 22:36 PST  -99.99 -99.99    4  127    5 -99.9 -99.9 -999.9 -9.9 -9.999 -99.9 -99.99 -9.99
2020/02/15 22:42 PST  -99.99 -99.99    5  128    5 -99.9 -99.9 -999.9 -9.9 -9.999 -99.9 -99.99 -9.99
2020/02/15 22:48 PST  -99.99 -99.99    6  121    6 -99.9 -99.9 -999.9 -9.9 -9.999 -99.9 -99.99 -9.99
2020/02/15 22:54 PST  -99.99 -99.99    5  119    6 -99.9 -99.9 -999.9 -9.9 -9.999 -99.9 -99.99 -9.99
2020/02/15 23:00 PST  -99.99 -99.99    5  124    6 -99.9 -99.9 -999.9 -9.9 -9.999 -99.9 -99.99 -9.99
2020/02/15 23:06 PST  -99.99 -99.99    6  121    7 -99.9 -99.9 -999.9 -9.9 -9.999 -99.9 -99.99 -9.99
2020/02/15 23:12 PST  -99.99 -99.99    5  129    6 -99.9 -99.9 -999.9 -9.9 -9.999 -99.9 -99.99 -9.99
2020/02/15 23:18 PST  -99.99 -99.99    5  137    6 -99.9 -99.9 -999.9 -9.9 -9.999 -99.9 -99.99 -9.99
2020/02/15 23:24 PST  -99.99 -99.99    6  130    7 -99.9 -99.9 -999.9 -9.9 -9.999 -99.9 -99.99 -9.99
2020/02/15 23:30 PST  -99.99 -99.99    6  133    8 -99.9 -99.9 -999.9 -9.9 -9.999 -99.9 -99.99 -9.99
2020/02/15 23:36 PST  -99.99 -99.99    5  139    7 -99.9 -99.9 -999.9 -9.9 -9.999 -99.9 -99.99 -9.99
2020/02/15 23:42 PST  -99.99 -99.99    6  139    7 -99.9 -99.9 -999.9 -9.9 -9.999 -99.9 -99.99 -9.99
2020/02/15 23:48 PST  -99.99 -99.99    5  143    7 -99.9 -99.9 -999.9 -9.9 -9.999 -99.9 -99.99 -9.99
2020/02/15 23:54 PST  -99.99 -99.99    5  142    6 -99.9 -99.9 -999.9 -9.9 -9.999 -99.9 -99.99 -9.99
2020/02/16 00:00 PST  -99.99 -99.99    4  121    7 -99.9 -99.9 -999.9 -9.9 -9.999 -99.9 -99.99 -9.99
2020/02/16 00:06 PST  -99.99 -99.99    5  100    5 -99.9 -99.9 -999.9 -9.9 -9.999 -99.9 -99.99 -9.99
2020/02/16 00:12 PST  -99.99 -99.99    4  103    6 -99.9 -99.9 -999.9 -9.9 -9.999 -99.9 -99.99 -9.99
2020/02/16 00:18 PST  -99.99 -99.99    3   91    5 -99.9 -99.9 -999.9 -9.9 -9.999 -99.9 -99.99 -9.99
2020/02/16 00:24 PST  -99.99 -99.99    3  100    4 -99.9 -99.9 -999.9 -9.9 -9.999 -99.9 -99.99 -9.99
2020/02/16 00:30 PST  -99.99 -99.99    4  119    5 -99.9 -99.9 -999.9 -9.9 -9.999 -99.9 -99.99 -9.99
2020/02/16 00:36 PST  -99.99 -99.99    3   98    6 -99.9 -99.9 -999.9 -9.9 -9.999 -99.9 -99.99 -9.99
2020/02/16 00:42 PST  -99.99 -99.99    4  109    5 -99.9 -99.9 -999.9 -9.9 -9.999 -99.9 -99.99 -9.99
2020/02/16 00:48 PST  -99.99 -99.99    3  133    4 -99.9 -99.9 -999.9 -9.9 -9.999 -99.9 -99.99 -9.99
2020/02/16 00:54 PST  -99.99 -99.99    4  128    4 -99.9 -99.9 -999.9 -9.9 -9.999 -99.9 -99.99 -9.99
2020/02/16 01:00 PST  -99.99 -99.99    5  132    6 -99.9 -99.9 -999.9 -9.9 -9.999 -99.9 -99.99 -9.99
2020/02/16 01:06 PST  -99.99 -99.99    5  119    6 -99.9 -99.9 -999.9 -9.9 -9.999 -99.9 -99.99 -9.99
2020/02/16 01:12 PST  -99.99 -99.99    6  120    7 -99.9 -99.9 -999.9 -9.9 -9.999 -99.9 -99.99 -9.99
2020/02/16 01:18 PST  -99.99 -99.99    5  137    6 -99.9 -99.9 -999.9 -9.9 -9.999 -99.9 -99.99 -9.99
2020/02/16 01:24 PST  -99.99 -99.99    3  124    5 -99.9 -99.9 -999.9 -9.9 -9.999 -99.9 -99.99 -9.99
2020/02/16 01:30 PST  -99.99 -99.99    3  119    3 -99.9 -99.9 -999.9 -9.9 -9.999 -99.9 -99.99 -9.99
2020/02/16 01:36 PST  -99.99 -99.99    5  123    7 -99.9 -99.9 -999.9 -9.9 -9.999 -99.9 -99.99 -9.99
2020/02/16 01:42 PST  -99.99 -99.99    3  137    5 -99.9 -99.9 -999.9 -9.9 -9.999 -99.9 -99.99 -9.99
2020/02/16 01:48 PST  -99.99 -99.99    4  141    5 -99.9 -99.9 -999.9 -9.9 -9.999 -99.9 -99.99 -9.99
2020/02/16 01:54 PST  -99.99 -99.99    5  125    5 -99.9 -99.9 -999.9 -9.9 -9.999 -99.9 -99.99 -9.99
2020/02/16 02:00 PST  -99.99 -99.99    3   89    6 -99.9 -99.9 -999.9 -9.9 -9.999 -99.9 -99.99 -9.99
2020/02/16 02:06 PST  -99.99 -99.99    4   98    5 -99.9 -99.9 -999.9 -9.9 -9.999 -99.9 -99.99 -9.99
2020/02/16 02:12 PST  -99.99 -99.99    4   91    5 -99.9 -99.9 -999.9 -9.9 -9.999 -99.9 -99.99 -9.99
2020/02/16 02:18 PST  -99.99 -99.99    3   94    5 -99.9 -99.9 -999.9 -9.9 -9.999 -99.9 -99.99 -9.99
2020/02/16 02:24 PST  -99.99 -99.99    3   73    4 -99.9 -99.9 -999.9 -9.9 -9.999 -99.9 -99.99 -9.99
2020/02/16 02:30 PST  -99.99 -99.99    3   68    4 -99.9 -99.9 -999.9 -9.9 -9.999 -99.9 -99.99 -9.99
2020/02/16 02:36 PST  -99.99 -99.99    2   89    3 -99.9 -99.9 -999.9 -9.9 -9.999 -99.9 -99.99 -9.99
2020/02/16 02:42 PST  -99.99 -99.99    3   49    3 -99.9 -99.9 -999.9 -9.9 -9.999 -99.9 -99.99 -9.99
2020/02/16 02:48 PST  -99.99 -99.99    2  110    3 -99.9 -99.9 -999.9 -9.9 -9.999 -99.9 -99.99 -9.99
2020/02/16 02:54 PST  -99.99 -99.99    2  125    3 -99.9 -99.9 -999.9 -9.9 -9.999 -99.9 -99.99 -9.99
2020/02/16 03:00 PST  -99.99 -99.99    3  138    3 -99.9 -99.9 -999.9 -9.9 -9.999 -99.9 -99.99 -9.99
2020/02/16 03:06 PST  -99.99 -99.99    2  105    5 -99.9 -99.9 -999.9 -9.9 -9.999 -99.9 -99.99 -9.99
2020/02/16 03:12 PST  -99.99 -99.99    1   91    2 -99.9 -99.9 -999.9 -9.9 -9.999 -99.9 -99.99 -9.99
2020/02/16 03:18 PST  -99.99 -99.99    0   87    1 -99.9 -99.9 -999.9 -9.9 -9.999 -99.9 -99.99 -9.99
2020/02/16 03:24 PST  -99.99 -99.99    2  125    2 -99.9 -99.9 -999.9 -9.9 -9.999 -99.9 -99.99 -9.99
2020/02/16 03:30 PST  -99.99 -99.99    4  141    5 -99.9 -99.9 -999.9 -9.9 -9.999 -99.9 -99.99 -9.99
2020/02/16 03:36 PST  -99.99 -99.99    4  119    6 -99.9 -99.9 -999.9 -9.9 -9.999 -99.9 -99.99 -9.99
2020/02/16 03:42 PST  -99.99 -99.99    4  123    5 -99.9 -99.9 -999.9 -9.9 -9.999 -99.9 -99.99 -9.99
2020/02/16 03:48 PST  -99.99 -99.99    6  133    7 -99.9 -99.9 -999.9 -9.9 -9.999 -99.9 -99.99 -9.99
2020/02/16 03:54 PST  -99.99 -99.99    4  134    6 -99.9 -99.9 -999.9 -9.9 -9.999 -99.9 -99.99 -9.99
2020/02/16 04:00 PST  -99.99 -99.99    3  141    5 -99.9 -99.9 -999.9 -9.9 -9.999 -99.9 -99.99 -9.99
2020/02/16 04:06 PST  -99.99 -99.99    4  143    5 -99.9 -99.9 -999.9 -9.9 -9.999 -99.9 -99.99 -9.99
2020/02/16 04:12 PST  -99.99 -99.99    6  137    7 -99.9 -99.9 -999.9 -9.9 -9.999 -99.9 -99.99 -9.99
2020/02/16 04:18 PST  -99.99 -99.99    5  126    6 -99.9 -99.9 -999.9 -9.9 -9.999 -99.9 -99.99 -9.99
2020/02/16 04:24 PST  -99.99 -99.99    6  125    7 -99.9 -99.9 -999.9 -9.9 -9.999 -99.9 -99.99 -9.99
2020/02/16 04:30 PST  -99.99 -99.99    5  128    6 -99.9 -99.9 -999.9 -9.9 -9.999 -99.9 -99.99 -9.99
2020/02/16 04:36 PST  -99.99 -99.99    4  120    6 -99.9 -99.9 -999.9 -9.9 -9.999 -99.9 -99.99 -9.99
2020/02/16 04:42 PST  -99.99 -99.99    3  107    4 -99.9 -99.9 -999.9 -9.9 -9.999 -99.9 -99.99 -9.99
2020/02/16 04:48 PST  -99.99 -99.99    4   80    4 -99.9 -99.9 -999.9 -9.9 -9.999 -99.9 -99.99 -9.99
2020/02/16 04:54 PST  -99.99 -99.99    5  106    5 -99.9 -99.9 -999.9 -9.9 -9.999 -99.9 -99.99 -9.99
2020/02/16 05:00 PST  -99.99 -99.99    5  100    7 -99.9 -99.9 -999.9 -9.9 -9.999 -99.9 -99.99 -9.99
2020/02/16 05:06 PST  -99.99 -99.99    5   75    6 -99.9 -99.9 -999.9 -9.9 -9.999 -99.9 -99.99 -9.99
2020/02/16 05:12 PST  -99.99 -99.99    4   93    5 -99.9 -99.9 -999.9 -9.9 -9.999 -99.9 -99.99 -9.99
2020/02/16 05:18 PST  -99.99 -99.99    2  103    4 -99.9 -99.9 -999.9 -9.9 -9.999 -99.9 -99.99 -9.99
2020/02/16 05:24 PST  -99.99 -99.99    4   93    4 -99.9 -99.9 -999.9 -9.9 -9.999 -99.9 -99.99 -9.99
2020/02/16 05:30 PST  -99.99 -99.99    5   74    6 -99.9 -99.9 -999.9 -9.9 -9.999 -99.9 -99.99 -9.99
2020/02/16 05:36 PST  -99.99 -99.99    4   84    6 -99.9 -99.9 -999.9 -9.9 -9.999 -99.9 -99.99 -9.99
2020/02/16 05:42 PST  -99.99 -99.99    3   94    6 -99.9 -99.9 -999.9 -9.9 -9.999 -99.9 -99.99 -9.99
2020/02/16 05:48 PST  -99.99 -99.99    4   98    5 -99.9 -99.9 -999.9 -9.9 -9.999 -99.9 -99.99 -9.99
2020/02/16 05:54 PST  -99.99 -99.99    4  105    5 -99.9 -99.9 -999.9 -9.9 -9.999 -99.9 -99.99 -9.99
2020/02/16 06:00 PST  -99.99 -99.99    4  141    5 -99.9 -99.9 -999.9 -9.9 -9.999 -99.9 -99.99 -9.99
2020/02/16 06:06 PST  -99.99 -99.99    5  142    6 -99.9 -99.9 -999.9 -9.9 -9.999 -99.9 -99.99 -9.99
2020/02/16 06:12 PST  -99.99 -99.99    5  146    6 -99.9 -99.9 -999.9 -9.9 -9.999 -99.9 -99.99 -9.99
2020/02/16 06:18 PST  -99.99 -99.99    5  143    5 -99.9 -99.9 -999.9 -9.9 -9.999 -99.9 -99.99 -9.99
2020/02/16 06:24 PST  -99.99 -99.99    4  149    6 -99.9 -99.9 -999.9 -9.9 -9.999 -99.9 -99.99 -9.99
2020/02/16 06:30 PST  -99.99 -99.99    4  140    5 -99.9 -99.9 -999.9 -9.9 -9.999 -99.9 -99.99 -9.99
2020/02/16 06:36 PST  -99.99 -99.99    5  144    5 -99.9 -99.9 -999.9 -9.9 -9.999 -99.9 -99.99 -9.99
2020/02/16 06:42 PST  -99.99 -99.99    5  132    6 -99.9 -99.9 -999.9 -9.9 -9.999 -99.9 -99.99 -9.99
2020/02/16 06:48 PST  -99.99 -99.99    4  121    6 -99.9 -99.9 -999.9 -9.9 -9.999 -99.9 -99.99 -9.99
2020/02/16 06:54 PST  -99.99 -99.99    3  104    5 -99.9 -99.9 -999.9 -9.9 -9.999 -99.9 -99.99 -9.99
2020/02/16 07:00 PST  -99.99 -99.99    5  128    6 -99.9 -99.9 -999.9 -9.9 -9.999 -99.9 -99.99 -9.99
2020/02/16 07:06 PST  -99.99 -99.99    5  138    5 -99.9 -99.9 -999.9 -9.9 -9.999 -99.9 -99.99 -9.99
2020/02/16 07:12 PST  -99.99 -99.99    2   97    6 -99.9 -99.9 -999.9 -9.9 -9.999 -99.9 -99.99 -9.99
2020/02/16 07:18 PST  -99.99 -99.99    5  133    5 -99.9 -99.9 -999.9 -9.9 -9.999 -99.9 -99.99 -9.99
2020/02/16 07:24 PST  -99.99 -99.99    5  130    6 -99.9 -99.9 -999.9 -9.9 -9.999 -99.9 -99.99 -9.99
2020/02/16 07:30 PST  -99.99 -99.99    6  114    6 -99.9 -99.9 -999.9 -9.9 -9.999 -99.9 -99.99 -9.99
2020/02/16 07:36 PST  -99.99 -99.99    3   85    6 -99.9 -99.9 -999.9 -9.9 -9.999 -99.9 -99.99 -9.99
2020/02/16 07:42 PST  -99.99 -99.99    4  105    4 -99.9 -99.9 -999.9 -9.9 -9.999 -99.9 -99.99 -9.99
2020/02/16 07:48 PST  -99.99 -99.99    4   85    5 -99.9 -99.9 -999.9 -9.9 -9.999 -99.9 -99.99 -9.99
2020/02/16 07:54 PST  -99.99 -99.99    3  110    5 -99.9 -99.9 -999.9 -9.9 -9.999 -99.9 -99.99 -9.99
2020/02/16 08:00 PST  -99.99 -99.99    4   71    5 -99.9 -99.9 -999.9 -9.9 -9.999 -99.9 -99.99 -9.99
2020/02/16 08:06 PST  -99.99 -99.99    3   92    4 -99.9 -99.9 -999.9 -9.9 -9.999 -99.9 -99.99 -9.99
2020/02/16 08:12 PST  -99.99 -99.99    1   89    4 -99.9 -99.9 -999.9 -9.9 -9.999 -99.9 -99.99 -9.99
2020/02/16 08:18 PST  -99.99 -99.99    1  144    2 -99.9 -99.9 -999.9 -9.9 -9.999 -99.9 -99.99 -9.99
2020/02/16 08:24 PST  -99.99 -99.99    2  124    3 -99.9 -99.9 -999.9 -9.9 -9.999 -99.9 -99.99 -9.99
2020/02/16 08:30 PST  -99.99 -99.99    1  110    3 -99.9 -99.9 -999.9 -9.9 -9.999 -99.9 -99.99 -9.99
2020/02/16 08:36 PST  -99.99 -99.99    3  136    3 -99.9 -99.9 -999.9 -9.9 -9.999 -99.9 -99.99 -9.99
2020/02/16 08:42 PST  -99.99 -99.99    3  156    4 -99.9 -99.9 -999.9 -9.9 -9.999 -99.9 -99.99 -9.99
2020/02/16 08:48 PST  -99.99 -99.99    3  172    4 -99.9 -99.9 -999.9 -9.9 -9.999 -99.9 -99.99 -9.99
2020/02/16 08:54 PST  -99.99 -99.99    3  181    5 -99.9 -99.9 -999.9 -9.9 -9.999 -99.9 -99.99 -9.99
2020/02/16 09:00 PST  -99.99 -99.99    5  161    6 -99.9 -99.9 -999.9 -9.9 -9.999 -99.9 -99.99 -9.99
2020/02/16 09:06 PST  -99.99 -99.99    3  163    5 -99.9 -99.9 -999.9 -9.9 -9.999 -99.9 -99.99 -9.99
2020/02/16 09:12 PST  -99.99 -99.99    4  162    5 -99.9 -99.9 -999.9 -9.9 -9.999 -99.9 -99.99 -9.99
2020/02/16 09:18 PST  -99.99 -99.99    4  158    5 -99.9 -99.9 -999.9 -9.9 -9.999 -99.9 -99.99 -9.99
2020/02/16 09:24 PST  -99.99 -99.99    5  165    6 -99.9 -99.9 -999.9 -9.9 -9.999 -99.9 -99.99 -9.99
2020/02/16 09:30 PST  -99.99 -99.99    4  164    7 -99.9 -99.9 -999.9 -9.9 -9.999 -99.9 -99.99 -9.99
2020/02/16 09:36 PST  -99.99 -99.99    4  163    5 -99.9 -99.9 -999.9 -9.9 -9.999 -99.9 -99.99 -9.99
2020/02/16 09:42 PST  -99.99 -99.99    4  156    5 -99.9 -99.9 -999.9 -9.9 -9.999 -99.9 -99.99 -9.99
2020/02/16 09:48 PST  -99.99 -99.99    5  154    6 -99.9 -99.9 -999.9 -9.9 -9.999 -99.9 -99.99 -9.99
2020/02/16 09:54 PST  -99.99 -99.99    5  147    6 -99.9 -99.9 -999.9 -9.9 -9.999 -99.9 -99.99 -9.99
2020/02/16 10:00 PST  -99.99 -99.99    5  147    6 -99.9 -99.9 -999.9 -9.9 -9.999 -99.9 -99.99 -9.99
2020/02/16 10:06 PST  -99.99 -99.99    4  142    6 -99.9 -99.9 -999.9 -9.9 -9.999 -99.9 -99.99 -9.99
2020/02/16 10:12 PST  -99.99 -99.99    3  138    4 -99.9 -99.9 -999.9 -9.9 -9.999 -99.9 -99.99 -9.99
2020/02/16 10:18 PST  -99.99 -99.99    2  168    4 -99.9 -99.9 -999.9 -9.9 -9.999 -99.9 -99.99 -9.99
2020/02/16 10:24 PST  -99.99 -99.99 -999 -999 -999 -99.9 -99.9 -999.9 -9.9 -9.999 -99.9 -99.99 -9.99
2020/02/16 10:30 PST  -99.99 -99.99 -999 -999 -999 -99.9 -99.9 -999.9 -9.9 -9.999 -99.9 -99.99 -9.99